Time,TemperatureF,DewpointF,PressureIn,WindDirection,WindDirectionDegrees,WindSpeedMPH,WindSpeedGustMPH,Humidity,HourlyPrecipIn,Conditions,Clouds,dailyrainin,SoftwareType,DateUTC
2013-04-09 00:03:00,73.0,72.0,29.71,SSE,157,6.0,6.0,96,0.00,,,0.00,TxWx,2013-04-09 05:03:00,
2013-04-09 00:06:00,73.0,72.0,29.70,SSW,202,13.0,15.0,96,0.00,,,0.00,TxWx,2013-04-09 05:06:00,
2013-04-09 00:07:00,73.0,72.0,29.70,ESE,112,14.0,14.0,96,0.00,,,0.00,TxWx,2013-04-09 05:07:00,
2013-04-09 00:09:00,73.0,72.0,29.71,SSE,157,16.0,17.0,96,0.00,,,0.00,TxWx,2013-04-09 05:09:00,
2013-04-09 00:10:00,73.0,72.0,29.70,South,180,15.0,17.0,96,0.00,,,0.00,TxWx,2013-04-09 05:10:00,
2013-04-09 00:12:00,73.0,72.0,29.70,SE,135,18.0,18.0,96,0.00,,,0.00,TxWx,2013-04-09 05:12:00,
2013-04-09 00:14:00,73.0,72.0,29.70,SSE,157,12.0,13.0,96,0.00,,,0.00,TxWx,2013-04-09 05:14:00,
2013-04-09 00:17:00,73.0,72.0,29.70,SSE,157,11.0,14.0,96,0.00,,,0.00,TxWx,2013-04-09 05:17:00,
2013-04-09 00:18:00,73.0,72.0,29.70,SE,135,11.0,11.0,96,0.00,,,0.00,TxWx,2013-04-09 05:18:00,
2013-04-09 00:19:00,73.0,72.0,29.70,SE,135,11.0,14.0,96,0.00,,,0.00,TxWx,2013-04-09 05:19:00,
2013-04-09 00:22:00,73.0,72.0,29.70,SSE,157,19.0,19.0,96,0.00,,,0.00,TxWx,2013-04-09 05:22:00,
2013-04-09 00:24:00,73.0,72.0,29.69,SSW,202,12.0,13.0,96,0.00,,,0.00,TxWx,2013-04-09 05:24:00,
2013-04-09 00:25:00,73.0,72.0,29.70,SE,135,11.0,15.0,96,0.00,,,0.00,TxWx,2013-04-09 05:25:00,
2013-04-09 00:26:00,73.0,72.0,29.70,SSW,202,14.0,14.0,96,0.00,,,0.00,TxWx,2013-04-09 05:26:00,
2013-04-09 00:27:00,73.0,72.0,29.70,SE,135,10.0,11.0,96,0.00,,,0.00,TxWx,2013-04-09 05:27:00,
2013-04-09 00:29:00,73.0,71.0,29.70,SSE,157,5.0,6.0,95,0.00,,,0.00,TxWx,2013-04-09 05:29:00,
2013-04-09 00:32:00,73.0,71.0,29.69,SE,135,14.0,14.0,95,0.00,,,0.00,TxWx,2013-04-09 05:32:00,
2013-04-09 00:33:00,73.0,71.0,29.69,SSE,157,18.0,21.0,95,0.00,,,0.00,TxWx,2013-04-09 05:33:00,
2013-04-09 00:35:00,73.0,71.0,29.70,SSE,157,13.0,14.0,95,0.00,,,0.00,TxWx,2013-04-09 05:35:00,
2013-04-09 00:37:00,73.0,71.0,29.70,SE,135,17.0,22.0,95,0.00,,,0.00,TxWx,2013-04-09 05:37:00,
2013-04-09 00:38:00,73.0,71.0,29.70,South,180,17.0,17.0,95,0.00,,,0.00,TxWx,2013-04-09 05:38:00,
2013-04-09 00:40:00,73.0,71.0,29.70,South,180,11.0,13.0,95,0.00,,,0.00,TxWx,2013-04-09 05:40:00,
2013-04-09 00:42:00,73.0,71.0,29.70,SE,135,9.0,10.0,95,0.00,,,0.00,TxWx,2013-04-09 05:42:00,
2013-04-09 00:43:00,73.0,71.0,29.70,SSE,157,14.0,14.0,95,0.00,,,0.00,TxWx,2013-04-09 05:43:00,
2013-04-09 00:47:00,73.0,71.0,29.69,South,180,13.0,13.0,95,0.00,,,0.00,TxWx,2013-04-09 05:47:00,
2013-04-09 00:48:00,73.0,71.0,29.69,SSE,157,17.0,20.0,95,0.00,,,0.00,TxWx,2013-04-09 05:48:00,
2013-04-09 00:53:00,73.0,71.0,29.69,SSE,157,7.0,8.0,95,0.00,,,0.00,TxWx,2013-04-09 05:53:00,
2013-04-09 00:54:00,73.0,71.0,29.69,South,180,20.0,23.0,95,0.00,,,0.00,TxWx,2013-04-09 05:54:00,
2013-04-09 00:56:00,73.0,71.0,29.69,SSE,157,11.0,11.0,95,0.00,,,0.00,TxWx,2013-04-09 05:56:00,
2013-04-09 00:58:00,73.0,71.0,29.69,SW,225,10.0,15.0,94,0.00,,,0.00,TxWx,2013-04-09 05:58:00,
2013-04-09 01:00:00,73.0,71.0,29.69,SSE,157,14.0,16.0,95,0.00,,,0.00,TxWx,2013-04-09 06:00:00,
2013-04-09 01:01:00,73.0,71.0,29.69,SSE,157,10.0,13.0,95,0.00,,,0.00,TxWx,2013-04-09 06:01:00,
2013-04-09 01:02:00,73.0,71.0,29.69,South,180,10.0,10.0,95,0.00,,,0.00,TxWx,2013-04-09 06:02:00,
2013-04-09 01:04:00,73.0,71.0,29.68,SSE,157,6.0,6.0,95,0.00,,,0.00,TxWx,2013-04-09 06:04:00,
2013-04-09 01:05:00,73.0,71.0,29.68,South,180,21.0,21.0,95,0.00,,,0.00,TxWx,2013-04-09 06:05:00,
2013-04-09 01:06:00,73.0,71.0,29.68,South,180,21.0,21.0,95,0.00,,,0.00,TxWx,2013-04-09 06:06:00,
2013-04-09 01:07:00,73.0,71.0,29.68,South,180,17.0,17.0,95,0.00,,,0.00,TxWx,2013-04-09 06:07:00,
2013-04-09 01:10:00,73.0,71.0,29.68,SSE,157,13.0,18.0,95,0.00,,,0.00,TxWx,2013-04-09 06:10:00,
2013-04-09 01:13:00,73.0,71.0,29.69,SSW,202,13.0,16.0,95,0.00,,,0.00,TxWx,2013-04-09 06:13:00,
2013-04-09 01:15:00,73.0,71.0,29.69,SSE,157,15.0,15.0,95,0.00,,,0.00,TxWx,2013-04-09 06:15:00,
2013-04-09 01:16:00,73.0,71.0,29.68,SSE,157,13.0,17.0,95,0.00,,,0.00,TxWx,2013-04-09 06:16:00,
2013-04-09 01:17:00,73.0,71.0,29.68,South,180,15.0,18.0,95,0.00,,,0.00,TxWx,2013-04-09 06:17:00,
2013-04-09 01:21:00,73.0,71.0,29.69,South,180,9.0,9.0,95,0.00,,,0.00,TxWx,2013-04-09 06:21:00,
2013-04-09 01:22:00,73.0,71.0,29.68,South,180,14.0,23.0,95,0.00,,,0.00,TxWx,2013-04-09 06:22:00,
2013-04-09 01:25:00,73.0,71.0,29.68,South,180,16.0,18.0,95,0.00,,,0.00,TxWx,2013-04-09 06:25:00,
2013-04-09 01:27:00,73.0,71.0,29.68,SE,135,12.0,12.0,95,0.00,,,0.00,TxWx,2013-04-09 06:27:00,
2013-04-09 01:28:00,73.0,71.0,29.69,South,180,13.0,14.0,95,0.00,,,0.00,TxWx,2013-04-09 06:28:00,
2013-04-09 01:30:00,73.0,71.0,29.69,South,180,6.0,8.0,95,0.00,,,0.00,TxWx,2013-04-09 06:30:00,
2013-04-09 01:32:00,73.0,71.0,29.69,SSW,202,18.0,18.0,95,0.00,,,0.00,TxWx,2013-04-09 06:32:00,
2013-04-09 01:34:00,73.0,71.0,29.69,SSW,202,5.0,10.0,95,0.00,,,0.00,TxWx,2013-04-09 06:34:00,
2013-04-09 01:36:00,73.0,71.0,29.69,SSE,157,9.0,11.0,95,0.00,,,0.00,TxWx,2013-04-09 06:36:00,
2013-04-09 01:38:00,72.0,70.0,29.69,South,180,8.0,10.0,95,0.00,,,0.00,TxWx,2013-04-09 06:38:00,
2013-04-09 01:40:00,72.0,70.0,29.68,SSE,157,13.0,13.0,95,0.00,,,0.00,TxWx,2013-04-09 06:40:00,
2013-04-09 01:41:00,72.0,70.0,29.68,SSW,202,13.0,16.0,95,0.00,,,0.00,TxWx,2013-04-09 06:41:00,
2013-04-09 01:43:00,72.0,71.0,29.68,SSE,157,9.0,12.0,96,0.00,,,0.00,TxWx,2013-04-09 06:43:00,
2013-04-09 01:45:00,72.0,71.0,29.69,SSE,157,16.0,16.0,96,0.00,,,0.00,TxWx,2013-04-09 06:45:00,
2013-04-09 01:47:00,72.0,71.0,29.69,South,180,11.0,13.0,96,0.00,,,0.00,TxWx,2013-04-09 06:47:00,
2013-04-09 01:48:00,72.0,71.0,29.68,South,180,10.0,12.0,96,0.00,,,0.00,TxWx,2013-04-09 06:48:00,
2013-04-09 01:51:00,72.0,71.0,29.69,SSE,157,9.0,9.0,96,0.00,,,0.00,TxWx,2013-04-09 06:51:00,
2013-04-09 01:52:00,72.0,71.0,29.69,South,180,10.0,11.0,96,0.00,,,0.00,TxWx,2013-04-09 06:52:00,
2013-04-09 01:54:00,72.0,71.0,29.68,South,180,13.0,13.0,96,0.00,,,0.00,TxWx,2013-04-09 06:54:00,
2013-04-09 01:55:00,72.0,71.0,29.69,SSE,157,11.0,11.0,96,0.00,,,0.00,TxWx,2013-04-09 06:55:00,
2013-04-09 01:56:00,72.0,71.0,29.68,SSE,157,9.0,10.0,96,0.00,,,0.00,TxWx,2013-04-09 06:56:00,
2013-04-09 01:59:00,72.0,71.0,29.68,SE,135,10.0,12.0,96,0.00,,,0.00,TxWx,2013-04-09 06:59:00,
2013-04-09 02:01:00,72.0,71.0,29.68,South,180,11.0,11.0,96,0.00,,,0.00,TxWx,2013-04-09 07:01:00,
2013-04-09 02:02:00,72.0,71.0,29.68,SW,225,8.0,8.0,96,0.00,,,0.00,TxWx,2013-04-09 07:02:00,
2013-04-09 02:03:00,72.0,71.0,29.68,SSW,202,18.0,19.0,96,0.00,,,0.00,TxWx,2013-04-09 07:03:00,
2013-04-09 02:05:00,72.0,71.0,29.68,South,180,13.0,13.0,96,0.00,,,0.00,TxWx,2013-04-09 07:05:00,
2013-04-09 02:07:00,72.0,71.0,29.68,SSE,157,10.0,10.0,96,0.00,,,0.00,TxWx,2013-04-09 07:07:00,
2013-04-09 02:09:00,72.0,71.0,29.68,SSW,202,7.0,7.0,96,0.00,,,0.00,TxWx,2013-04-09 07:09:00,
2013-04-09 02:10:00,72.0,71.0,29.68,SSW,202,11.0,12.0,96,0.00,,,0.00,TxWx,2013-04-09 07:10:00,
2013-04-09 02:11:00,72.0,71.0,29.68,SW,225,11.0,11.0,96,0.00,,,0.00,TxWx,2013-04-09 07:11:00,
2013-04-09 02:15:00,72.0,71.0,29.68,South,180,13.0,13.0,96,0.00,,,0.00,TxWx,2013-04-09 07:15:00,
2013-04-09 02:16:00,72.0,71.0,29.68,SE,135,8.0,11.0,96,0.00,,,0.00,TxWx,2013-04-09 07:16:00,
2013-04-09 02:17:00,72.0,71.0,29.68,South,180,8.0,8.0,96,0.00,,,0.00,TxWx,2013-04-09 07:17:00,
2013-04-09 02:19:00,72.0,71.0,29.68,South,180,14.0,14.0,96,0.00,,,0.00,TxWx,2013-04-09 07:19:00,
2013-04-09 02:20:00,72.0,71.0,29.68,South,180,6.0,7.0,97,0.00,,,0.00,TxWx,2013-04-09 07:20:00,
2013-04-09 02:21:00,72.0,71.0,29.68,South,180,14.0,16.0,97,0.00,,,0.00,TxWx,2013-04-09 07:21:00,
2013-04-09 02:23:00,72.0,71.0,29.68,SE,135,8.0,9.0,97,0.00,,,0.00,TxWx,2013-04-09 07:23:00,
2013-04-09 02:26:00,72.0,71.0,29.67,SSE,157,6.0,7.0,97,0.00,,,0.00,TxWx,2013-04-09 07:26:00,
2013-04-09 02:27:00,72.0,71.0,29.68,SE,135,10.0,13.0,97,0.00,,,0.00,TxWx,2013-04-09 07:27:00,
2013-04-09 02:29:00,72.0,71.0,29.68,South,180,5.0,5.0,97,0.00,,,0.00,TxWx,2013-04-09 07:29:00,
2013-04-09 02:32:00,71.0,70.0,29.68,South,180,10.0,10.0,97,0.00,,,0.00,TxWx,2013-04-09 07:32:00,
2013-04-09 02:33:00,71.0,70.0,29.67,SSW,202,6.0,6.0,97,0.00,,,0.00,TxWx,2013-04-09 07:33:00,
2013-04-09 02:34:00,71.0,70.0,29.68,South,180,14.0,15.0,97,0.00,,,0.00,TxWx,2013-04-09 07:34:00,
2013-04-09 02:35:00,71.0,70.0,29.67,SSW,202,13.0,13.0,97,0.00,,,0.00,TxWx,2013-04-09 07:35:00,
2013-04-09 02:38:00,71.0,70.0,29.67,SW,225,6.0,6.0,97,0.00,,,0.00,TxWx,2013-04-09 07:38:00,
2013-04-09 02:39:00,71.0,70.0,29.67,SSE,157,10.0,10.0,97,0.00,,,0.00,TxWx,2013-04-09 07:39:00,
2013-04-09 02:40:00,71.0,70.0,29.67,SSW,202,7.0,9.0,97,0.00,,,0.00,TxWx,2013-04-09 07:40:00,
2013-04-09 02:43:00,71.0,70.0,29.67,SSW,202,6.0,9.0,97,0.00,,,0.00,TxWx,2013-04-09 07:43:00,
2013-04-09 02:44:00,71.0,70.0,29.67,SSW,202,10.0,10.0,97,0.00,,,0.00,TxWx,2013-04-09 07:44:00,
2013-04-09 02:45:00,71.0,70.0,29.67,South,180,8.0,8.0,97,0.00,,,0.00,TxWx,2013-04-09 07:45:00,
2013-04-09 02:49:00,71.0,70.0,29.67,South,180,9.0,9.0,97,0.00,,,0.00,TxWx,2013-04-09 07:49:00,
2013-04-09 02:51:00,71.0,70.0,29.67,SSW,202,11.0,12.0,97,0.00,,,0.00,TxWx,2013-04-09 07:51:00,
2013-04-09 02:52:00,71.0,70.0,29.66,South,180,8.0,10.0,97,0.00,,,0.00,TxWx,2013-04-09 07:52:00,
2013-04-09 02:57:00,71.0,70.0,29.66,SSW,202,5.0,8.0,97,0.00,,,0.00,TxWx,2013-04-09 07:57:00,
2013-04-09 02:58:00,71.0,70.0,29.66,SSW,202,5.0,5.0,97,0.00,,,0.00,TxWx,2013-04-09 07:58:00,
2013-04-09 03:02:00,71.0,70.0,29.66,SSW,202,8.0,10.0,97,0.00,,,0.00,TxWx,2013-04-09 08:02:00,
2013-04-09 03:03:00,71.0,70.0,29.66,South,180,6.0,6.0,97,0.00,,,0.00,TxWx,2013-04-09 08:03:00,
2013-04-09 03:04:00,71.0,70.0,29.66,SSW,202,9.0,9.0,97,0.00,,,0.00,TxWx,2013-04-09 08:04:00,
2013-04-09 03:08:00,71.0,70.0,29.66,South,180,10.0,10.0,97,0.00,,,0.00,TxWx,2013-04-09 08:08:00,
2013-04-09 03:09:00,71.0,70.0,29.66,SSE,157,12.0,15.0,97,0.00,,,0.00,TxWx,2013-04-09 08:09:00,
2013-04-09 03:11:00,71.0,70.0,29.66,South,180,10.0,10.0,97,0.00,,,0.00,TxWx,2013-04-09 08:11:00,
2013-04-09 03:14:00,71.0,70.0,29.66,SE,135,8.0,10.0,97,0.00,,,0.00,TxWx,2013-04-09 08:14:00,
2013-04-09 03:15:00,71.0,70.0,29.66,SE,135,12.0,13.0,98,0.00,,,0.00,TxWx,2013-04-09 08:15:00,
2013-04-09 03:17:00,71.0,70.0,29.66,SSE,157,10.0,10.0,98,0.00,,,0.00,TxWx,2013-04-09 08:17:00,
2013-04-09 03:20:00,71.0,70.0,29.66,South,180,11.0,12.0,98,0.00,,,0.00,TxWx,2013-04-09 08:20:00,
2013-04-09 03:21:00,71.0,70.0,29.65,South,180,10.0,10.0,98,0.00,,,0.00,TxWx,2013-04-09 08:21:00,
2013-04-09 03:22:00,71.0,70.0,29.66,SE,135,11.0,11.0,98,0.00,,,0.00,TxWx,2013-04-09 08:22:00,
2013-04-09 03:23:00,71.0,70.0,29.66,SE,135,14.0,15.0,98,0.00,,,0.00,TxWx,2013-04-09 08:23:00,
2013-04-09 03:25:00,71.0,70.0,29.66,SE,135,6.0,8.0,98,0.00,,,0.00,TxWx,2013-04-09 08:25:00,
2013-04-09 03:29:00,71.0,70.0,29.65,SSE,157,6.0,6.0,98,0.00,,,0.00,TxWx,2013-04-09 08:29:00,
2013-04-09 03:30:00,71.0,70.0,29.65,SSE,157,11.0,12.0,98,0.00,,,0.00,TxWx,2013-04-09 08:30:00,
2013-04-09 03:31:00,71.0,70.0,29.65,South,180,13.0,13.0,98,0.00,,,0.00,TxWx,2013-04-09 08:31:00,
2013-04-09 03:34:00,71.0,70.0,29.65,SSE,157,13.0,13.0,98,0.00,,,0.00,TxWx,2013-04-09 08:34:00,
2013-04-09 03:36:00,71.0,70.0,29.65,SSE,157,13.0,13.0,98,0.00,,,0.00,TxWx,2013-04-09 08:36:00,
2013-04-09 03:40:00,71.0,70.0,29.65,South,180,15.0,15.0,98,0.00,,,0.00,TxWx,2013-04-09 08:40:00,
2013-04-09 03:42:00,71.0,70.0,29.65,SSE,157,8.0,9.0,98,0.00,,,0.00,TxWx,2013-04-09 08:42:00,
2013-04-09 03:44:00,71.0,70.0,29.65,South,180,10.0,11.0,98,0.00,,,0.00,TxWx,2013-04-09 08:44:00,
2013-04-09 03:45:00,71.0,70.0,29.65,SSE,157,10.0,11.0,98,0.00,,,0.00,TxWx,2013-04-09 08:45:00,
2013-04-09 03:47:00,71.0,70.0,29.65,SE,135,4.0,4.0,98,0.00,,,0.00,TxWx,2013-04-09 08:47:00,
2013-04-09 03:50:00,71.0,70.0,29.65,SSE,157,12.0,13.0,98,0.00,,,0.00,TxWx,2013-04-09 08:50:00,
2013-04-09 03:51:00,71.0,70.0,29.65,South,180,10.0,11.0,98,0.00,,,0.00,TxWx,2013-04-09 08:51:00,
2013-04-09 03:53:00,71.0,70.0,29.65,SSE,157,7.0,7.0,98,0.00,,,0.00,TxWx,2013-04-09 08:53:00,
2013-04-09 03:55:00,71.0,70.0,29.65,South,180,8.0,10.0,98,0.00,,,0.00,TxWx,2013-04-09 08:55:00,
2013-04-09 03:56:00,71.0,70.0,29.64,SSE,157,13.0,14.0,98,0.00,,,0.00,TxWx,2013-04-09 08:56:00,
2013-04-09 03:57:00,71.0,70.0,29.65,South,180,11.0,12.0,98,0.00,,,0.00,TxWx,2013-04-09 08:57:00,
2013-04-09 03:59:00,71.0,70.0,29.64,SE,135,5.0,5.0,98,0.00,,,0.00,TxWx,2013-04-09 08:59:00,
2013-04-09 04:02:00,71.0,70.0,29.64,SSE,157,11.0,11.0,98,0.00,,,0.00,TxWx,2013-04-09 09:02:00,
2013-04-09 04:05:00,71.0,70.0,29.64,SSE,157,6.0,6.0,98,0.00,,,0.00,TxWx,2013-04-09 09:05:00,
2013-04-09 04:08:00,71.0,70.0,29.64,SSW,202,8.0,8.0,98,0.00,,,0.00,TxWx,2013-04-09 09:08:00,
2013-04-09 04:09:00,71.0,70.0,29.64,SE,135,11.0,11.0,98,0.00,,,0.00,TxWx,2013-04-09 09:09:00,
2013-04-09 04:10:00,71.0,70.0,29.64,South,180,7.0,8.0,98,0.00,,,0.00,TxWx,2013-04-09 09:10:00,
2013-04-09 04:12:00,71.0,70.0,29.64,South,180,11.0,12.0,98,0.00,,,0.00,TxWx,2013-04-09 09:12:00,
2013-04-09 04:14:00,71.0,70.0,29.64,SW,225,6.0,7.0,98,0.00,,,0.00,TxWx,2013-04-09 09:14:00,
2013-04-09 04:15:00,71.0,70.0,29.64,ESE,112,6.0,6.0,98,0.00,,,0.00,TxWx,2013-04-09 09:15:00,
2013-04-09 04:17:00,71.0,70.0,29.64,SE,135,10.0,11.0,98,0.00,,,0.00,TxWx,2013-04-09 09:17:00,
2013-04-09 04:18:00,71.0,70.0,29.64,SSE,157,8.0,8.0,98,0.00,,,0.00,TxWx,2013-04-09 09:18:00,
2013-04-09 04:21:00,71.0,70.0,29.64,SSW,202,7.0,10.0,98,0.00,,,0.00,TxWx,2013-04-09 09:21:00,
2013-04-09 04:23:00,71.0,70.0,29.64,SSE,157,15.0,16.0,98,0.00,,,0.00,TxWx,2013-04-09 09:23:00,
2013-04-09 04:24:00,71.0,70.0,29.64,SSW,202,8.0,10.0,98,0.00,,,0.00,TxWx,2013-04-09 09:24:00,
2013-04-09 04:26:00,71.0,70.0,29.64,SE,135,10.0,11.0,98,0.00,,,0.00,TxWx,2013-04-09 09:26:00,
2013-04-09 04:28:00,71.0,70.0,29.63,SSE,157,10.0,10.0,97,0.00,,,0.00,TxWx,2013-04-09 09:28:00,
2013-04-09 04:30:00,71.0,70.0,29.64,SSE,157,13.0,13.0,97,0.00,,,0.00,TxWx,2013-04-09 09:30:00,
2013-04-09 04:33:00,71.0,70.0,29.63,SSW,202,12.0,13.0,97,0.00,,,0.00,TxWx,2013-04-09 09:33:00,
2013-04-09 04:35:00,71.0,70.0,29.63,South,180,10.0,10.0,97,0.00,,,0.00,TxWx,2013-04-09 09:35:00,
2013-04-09 04:37:00,71.0,70.0,29.64,South,180,7.0,8.0,97,0.00,,,0.00,TxWx,2013-04-09 09:37:00,
2013-04-09 04:40:00,71.0,70.0,29.64,SSE,157,11.0,11.0,97,0.00,,,0.00,TxWx,2013-04-09 09:40:00,
2013-04-09 04:42:00,71.0,70.0,29.64,SE,135,3.0,5.0,97,0.00,,,0.00,TxWx,2013-04-09 09:42:00,
2013-04-09 04:45:00,71.0,70.0,29.63,SSW,202,8.0,8.0,97,0.00,,,0.00,TxWx,2013-04-09 09:45:00,
2013-04-09 04:49:00,71.0,70.0,29.63,South,180,10.0,13.0,97,0.00,,,0.00,TxWx,2013-04-09 09:49:00,
2013-04-09 04:50:00,71.0,70.0,29.63,SSW,202,8.0,8.0,97,0.00,,,0.00,TxWx,2013-04-09 09:50:00,
2013-04-09 04:51:00,71.0,70.0,29.64,SE,135,6.0,6.0,97,0.00,,,0.00,TxWx,2013-04-09 09:51:00,
2013-04-09 04:54:00,71.0,70.0,29.64,South,180,7.0,7.0,97,0.00,,,0.00,TxWx,2013-04-09 09:54:00,
2013-04-09 04:55:00,71.0,70.0,29.64,SSE,157,14.0,14.0,97,0.00,,,0.00,TxWx,2013-04-09 09:55:00,
2013-04-09 04:56:00,71.0,70.0,29.64,South,180,13.0,14.0,97,0.00,,,0.00,TxWx,2013-04-09 09:56:00,
2013-04-09 04:57:00,71.0,70.0,29.63,SSW,202,6.0,6.0,97,0.00,,,0.00,TxWx,2013-04-09 09:57:00,
2013-04-09 05:01:00,71.0,70.0,29.63,SSE,157,8.0,8.0,97,0.00,,,0.00,TxWx,2013-04-09 10:01:00,
2013-04-09 05:02:00,71.0,70.0,29.63,South,180,6.0,6.0,97,0.00,,,0.00,TxWx,2013-04-09 10:02:00,
2013-04-09 05:03:00,71.0,70.0,29.63,ESE,112,11.0,11.0,97,0.00,,,0.00,TxWx,2013-04-09 10:03:00,
2013-04-09 05:06:00,71.0,70.0,29.63,SE,135,8.0,8.0,97,0.00,,,0.00,TxWx,2013-04-09 10:06:00,
2013-04-09 05:07:00,71.0,70.0,29.63,SE,135,14.0,15.0,97,0.00,,,0.00,TxWx,2013-04-09 10:07:00,
2013-04-09 05:08:00,71.0,70.0,29.63,SSE,157,7.0,7.0,97,0.00,,,0.00,TxWx,2013-04-09 10:08:00,
2013-04-09 05:11:00,71.0,70.0,29.63,SSE,157,10.0,10.0,97,0.00,,,0.00,TxWx,2013-04-09 10:11:00,
2013-04-09 05:13:00,71.0,70.0,29.63,East,90,4.0,6.0,97,0.00,,,0.00,TxWx,2013-04-09 10:13:00,
2013-04-09 05:16:00,71.0,70.0,29.63,SSE,157,7.0,7.0,97,0.00,,,0.00,TxWx,2013-04-09 10:16:00,
2013-04-09 05:17:00,71.0,70.0,29.63,SSE,157,11.0,11.0,97,0.00,,,0.00,TxWx,2013-04-09 10:17:00,
2013-04-09 05:18:00,71.0,70.0,29.63,SE,135,8.0,9.0,97,0.00,,,0.00,TxWx,2013-04-09 10:18:00,
2013-04-09 05:20:00,71.0,70.0,29.62,SE,135,8.0,8.0,97,0.00,,,0.00,TxWx,2013-04-09 10:20:00,
2013-04-09 05:23:00,71.0,70.0,29.62,SSE,157,10.0,10.0,97,0.00,,,0.00,TxWx,2013-04-09 10:23:00,
2013-04-09 05:24:00,71.0,70.0,29.62,SSE,157,11.0,11.0,97,0.00,,,0.00,TxWx,2013-04-09 10:24:00,
2013-04-09 05:25:00,71.0,70.0,29.62,SSE,157,6.0,6.0,97,0.00,,,0.00,TxWx,2013-04-09 10:25:00,
2013-04-09 05:29:00,71.0,70.0,29.62,SSE,157,6.0,8.0,97,0.00,,,0.00,TxWx,2013-04-09 10:29:00,
2013-04-09 05:31:00,71.0,70.0,29.62,SSW,202,5.0,5.0,97,0.00,,,0.00,TxWx,2013-04-09 10:31:00,
2013-04-09 05:32:00,71.0,70.0,29.62,East,90,5.0,5.0,97,0.00,,,0.00,TxWx,2013-04-09 10:32:00,
2013-04-09 05:34:00,71.0,70.0,29.62,SE,135,7.0,8.0,97,0.00,,,0.00,TxWx,2013-04-09 10:34:00,
2013-04-09 05:36:00,71.0,70.0,29.62,SSE,157,14.0,15.0,97,0.00,,,0.00,TxWx,2013-04-09 10:36:00,
2013-04-09 05:37:00,71.0,70.0,29.62,SE,135,8.0,8.0,97,0.00,,,0.00,TxWx,2013-04-09 10:37:00,
2013-04-09 05:38:00,71.0,70.0,29.62,SSW,202,6.0,6.0,97,0.00,,,0.00,TxWx,2013-04-09 10:38:00,
2013-04-09 05:40:00,71.0,70.0,29.62,SE,135,11.0,11.0,97,0.00,,,0.00,TxWx,2013-04-09 10:40:00,
2013-04-09 05:42:00,71.0,70.0,29.62,SSE,157,12.0,12.0,97,0.00,,,0.00,TxWx,2013-04-09 10:42:00,
2013-04-09 05:44:00,71.0,70.0,29.62,ESE,112,5.0,6.0,97,0.00,,,0.00,TxWx,2013-04-09 10:44:00,
2013-04-09 05:45:00,71.0,70.0,29.61,SE,135,6.0,6.0,97,0.00,,,0.00,TxWx,2013-04-09 10:45:00,
2013-04-09 05:47:00,71.0,70.0,29.62,SSE,157,7.0,8.0,97,0.00,,,0.00,TxWx,2013-04-09 10:47:00,
2013-04-09 05:50:00,71.0,70.0,29.62,SSE,157,9.0,9.0,97,0.00,,,0.00,TxWx,2013-04-09 10:50:00,
2013-04-09 05:51:00,71.0,70.0,29.62,South,180,6.0,6.0,97,0.00,,,0.00,TxWx,2013-04-09 10:51:00,
2013-04-09 05:52:00,71.0,70.0,29.62,SE,135,10.0,12.0,97,0.00,,,0.00,TxWx,2013-04-09 10:52:00,
2013-04-09 05:57:00,71.0,70.0,29.62,SSW,202,8.0,10.0,97,0.00,,,0.00,TxWx,2013-04-09 10:57:00,
2013-04-09 05:59:00,71.0,70.0,29.62,SSE,157,8.0,8.0,97,0.00,,,0.00,TxWx,2013-04-09 10:59:00,
2013-04-09 06:02:00,71.0,70.0,29.62,SE,135,6.0,9.0,97,0.00,,,0.00,TxWx,2013-04-09 11:02:00,
2013-04-09 06:03:00,71.0,70.0,29.62,SW,225,3.0,4.0,97,0.00,,,0.00,TxWx,2013-04-09 11:03:00,
2013-04-09 06:08:00,71.0,70.0,29.62,SE,135,10.0,11.0,97,0.00,,,0.00,TxWx,2013-04-09 11:08:00,
2013-04-09 06:09:00,71.0,70.0,29.62,South,180,13.0,14.0,97,0.00,,,0.00,TxWx,2013-04-09 11:09:00,
2013-04-09 06:13:00,71.0,70.0,29.61,SE,135,8.0,8.0,97,0.00,,,0.00,TxWx,2013-04-09 11:13:00,
2013-04-09 06:14:00,71.0,70.0,29.62,SSW,202,6.0,6.0,97,0.00,,,0.00,TxWx,2013-04-09 11:14:00,
2013-04-09 06:15:00,71.0,70.0,29.62,South,180,6.0,6.0,97,0.00,,,0.00,TxWx,2013-04-09 11:15:00,
2013-04-09 06:19:00,71.0,70.0,29.62,SSE,157,9.0,9.0,97,0.00,,,0.00,TxWx,2013-04-09 11:19:00,
2013-04-09 06:20:00,71.0,70.0,29.61,SE,135,11.0,11.0,97,0.00,,,0.00,TxWx,2013-04-09 11:20:00,
2013-04-09 06:21:00,71.0,70.0,29.62,South,180,6.0,6.0,97,0.00,,,0.00,TxWx,2013-04-09 11:21:00,
2013-04-09 06:25:00,71.0,70.0,29.62,South,180,9.0,9.0,97,0.00,,,0.00,TxWx,2013-04-09 11:25:00,
2013-04-09 06:26:00,71.0,70.0,29.62,SSE,157,10.0,12.0,97,0.00,,,0.00,TxWx,2013-04-09 11:26:00,
2013-04-09 06:27:00,71.0,70.0,29.62,SSE,157,6.0,8.0,97,0.00,,,0.00,TxWx,2013-04-09 11:27:00,
2013-04-09 06:32:00,71.0,70.0,29.62,SSW,202,11.0,11.0,97,0.00,,,0.00,TxWx,2013-04-09 11:32:00,
2013-04-09 06:33:00,71.0,70.0,29.62,SSE,157,10.0,11.0,97,0.00,,,0.00,TxWx,2013-04-09 11:33:00,
2013-04-09 06:37:00,71.0,70.0,29.62,South,180,9.0,9.0,97,0.00,,,0.00,TxWx,2013-04-09 11:37:00,
2013-04-09 06:38:00,71.0,70.0,29.62,SE,135,7.0,7.0,97,0.00,,,0.00,TxWx,2013-04-09 11:38:00,
2013-04-09 06:39:00,71.0,70.0,29.62,SE,135,11.0,11.0,97,0.00,,,0.00,TxWx,2013-04-09 11:39:00,
2013-04-09 06:42:00,71.0,70.0,29.62,SSE,157,10.0,10.0,97,0.00,,,0.00,TxWx,2013-04-09 11:42:00,
2013-04-09 06:44:00,71.0,70.0,29.62,SSW,202,13.0,13.0,97,0.00,,,0.00,TxWx,2013-04-09 11:44:00,
2013-04-09 06:45:00,71.0,70.0,29.62,SW,225,11.0,11.0,97,0.00,,,0.00,TxWx,2013-04-09 11:45:00,
2013-04-09 06:46:00,71.0,70.0,29.62,SSE,157,8.0,8.0,97,0.00,,,0.00,TxWx,2013-04-09 11:46:00,
2013-04-09 06:48:00,71.0,70.0,29.62,South,180,6.0,8.0,97,0.00,,,0.00,TxWx,2013-04-09 11:48:00,
2013-04-09 06:51:00,71.0,70.0,29.63,SE,135,9.0,10.0,97,0.00,,,0.00,TxWx,2013-04-09 11:51:00,
2013-04-09 06:52:00,71.0,70.0,29.63,ESE,112,6.0,6.0,97,0.00,,,0.00,TxWx,2013-04-09 11:52:00,
2013-04-09 06:54:00,71.0,70.0,29.62,SSE,157,15.0,16.0,97,0.00,,,0.00,TxWx,2013-04-09 11:54:00,
2013-04-09 06:56:00,71.0,70.0,29.63,SSE,157,12.0,13.0,97,0.00,,,0.00,TxWx,2013-04-09 11:56:00,
2013-04-09 06:57:00,71.0,70.0,29.63,South,180,7.0,8.0,97,0.00,,,0.00,TxWx,2013-04-09 11:57:00,
2013-04-09 06:58:00,71.0,70.0,29.63,SSE,157,12.0,12.0,97,0.00,,,0.00,TxWx,2013-04-09 11:58:00,
2013-04-09 07:00:00,71.0,70.0,29.63,SSE,157,10.0,11.0,97,0.00,,,0.00,TxWx,2013-04-09 12:00:00,
2013-04-09 07:01:00,71.0,70.0,29.63,SSE,157,11.0,12.0,97,0.00,,,0.00,TxWx,2013-04-09 12:01:00,
2013-04-09 07:02:00,71.0,70.0,29.63,South,180,11.0,11.0,97,0.00,,,0.00,TxWx,2013-04-09 12:02:00,
2013-04-09 07:03:00,71.0,70.0,29.63,South,180,6.0,8.0,97,0.00,,,0.00,TxWx,2013-04-09 12:03:00,
2013-04-09 07:07:00,71.0,70.0,29.64,South,180,8.0,8.0,97,0.00,,,0.00,TxWx,2013-04-09 12:07:00,
2013-04-09 07:08:00,71.0,70.0,29.64,South,180,11.0,11.0,97,0.00,,,0.00,TxWx,2013-04-09 12:08:00,
2013-04-09 07:09:00,71.0,70.0,29.64,SSE,157,7.0,8.0,97,0.00,,,0.00,TxWx,2013-04-09 12:09:00,
2013-04-09 07:12:00,71.0,70.0,29.64,SE,135,8.0,10.0,97,0.00,,,0.00,TxWx,2013-04-09 12:12:00,
2013-04-09 07:13:00,71.0,70.0,29.64,SSE,157,13.0,15.0,97,0.00,,,0.00,TxWx,2013-04-09 12:13:00,
2013-04-09 07:14:00,71.0,70.0,29.64,SSE,157,9.0,10.0,97,0.00,,,0.00,TxWx,2013-04-09 12:14:00,
2013-04-09 07:15:00,71.0,70.0,29.64,South,180,10.0,11.0,97,0.00,,,0.00,TxWx,2013-04-09 12:15:00,
2013-04-09 07:20:00,71.0,70.0,29.65,SSE,157,9.0,10.0,97,0.00,,,0.00,TxWx,2013-04-09 12:20:00,
2013-04-09 07:21:00,71.0,70.0,29.65,ESE,112,6.0,6.0,97,0.00,,,0.00,TxWx,2013-04-09 12:21:00,
2013-04-09 07:23:00,71.0,70.0,29.65,South,180,5.0,6.0,97,0.00,,,0.00,TxWx,2013-04-09 12:23:00,
2013-04-09 07:26:00,71.0,70.0,29.65,SE,135,9.0,10.0,97,0.00,,,0.00,TxWx,2013-04-09 12:26:00,
2013-04-09 07:28:00,71.0,70.0,29.65,SW,225,8.0,9.0,97,0.00,,,0.00,TxWx,2013-04-09 12:28:00,
2013-04-09 07:31:00,71.0,70.0,29.65,SSW,202,8.0,8.0,97,0.00,,,0.00,TxWx,2013-04-09 12:31:00,
2013-04-09 07:32:00,71.0,70.0,29.65,SE,135,8.0,8.0,97,0.00,,,0.00,TxWx,2013-04-09 12:32:00,
2013-04-09 07:33:00,71.0,70.0,29.65,SSE,157,10.0,13.0,97,0.00,,,0.00,TxWx,2013-04-09 12:33:00,
2013-04-09 07:36:00,71.0,70.0,29.66,SSE,157,15.0,15.0,97,0.00,,,0.00,TxWx,2013-04-09 12:36:00,
2013-04-09 07:37:00,71.0,70.0,29.66,SSW,202,10.0,13.0,97,0.00,,,0.00,TxWx,2013-04-09 12:37:00,
2013-04-09 07:40:00,71.0,70.0,29.66,South,180,8.0,8.0,97,0.00,,,0.00,TxWx,2013-04-09 12:40:00,
2013-04-09 07:41:00,71.0,70.0,29.66,SE,135,8.0,8.0,97,0.00,,,0.00,TxWx,2013-04-09 12:41:00,
2013-04-09 07:42:00,71.0,70.0,29.66,SSW,202,8.0,14.0,97,0.00,,,0.00,TxWx,2013-04-09 12:42:00,
2013-04-09 07:44:00,71.0,70.0,29.66,SSE,157,12.0,12.0,97,0.00,,,0.00,TxWx,2013-04-09 12:44:00,
2013-04-09 07:45:00,71.0,70.0,29.66,SSW,202,14.0,15.0,96,0.00,,,0.00,TxWx,2013-04-09 12:45:00,
2013-04-09 07:47:00,71.0,70.0,29.65,SSW,202,11.0,11.0,96,0.00,,,0.00,TxWx,2013-04-09 12:47:00,
2013-04-09 07:48:00,71.0,70.0,29.65,SSW,202,9.0,13.0,96,0.00,,,0.00,TxWx,2013-04-09 12:48:00,
2013-04-09 07:49:00,71.0,70.0,29.65,South,180,11.0,11.0,96,0.00,,,0.00,TxWx,2013-04-09 12:49:00,
2013-04-09 07:50:00,71.0,70.0,29.65,SW,225,5.0,6.0,96,0.00,,,0.00,TxWx,2013-04-09 12:50:00,
2013-04-09 07:52:00,71.0,70.0,29.65,SE,135,8.0,10.0,96,0.00,,,0.00,TxWx,2013-04-09 12:52:00,
2013-04-09 07:53:00,71.0,70.0,29.65,SSE,157,11.0,11.0,96,0.00,,,0.00,TxWx,2013-04-09 12:53:00,
2013-04-09 07:55:00,71.0,70.0,29.65,South,180,6.0,6.0,96,0.00,,,0.00,TxWx,2013-04-09 12:55:00,
2013-04-09 07:58:00,71.0,70.0,29.65,South,180,10.0,11.0,96,0.00,,,0.00,TxWx,2013-04-09 12:58:00,
2013-04-09 07:59:00,71.0,70.0,29.65,South,180,9.0,10.0,96,0.00,,,0.00,TxWx,2013-04-09 12:59:00,
2013-04-09 08:01:00,71.0,70.0,29.65,ESE,112,8.0,13.0,96,0.00,,,0.00,TxWx,2013-04-09 13:01:00,
2013-04-09 08:02:00,71.0,70.0,29.65,SSW,202,13.0,13.0,96,0.00,,,0.00,TxWx,2013-04-09 13:02:00,
2013-04-09 08:03:00,71.0,70.0,29.65,SSW,202,14.0,14.0,96,0.00,,,0.00,TxWx,2013-04-09 13:03:00,
2013-04-09 08:05:00,71.0,70.0,29.65,SSW,202,11.0,12.0,96,0.00,,,0.00,TxWx,2013-04-09 13:05:00,
2013-04-09 08:09:00,72.0,71.0,29.66,NW,315,5.0,7.0,96,0.00,,,0.00,TxWx,2013-04-09 13:09:00,
2013-04-09 08:10:00,72.0,71.0,29.66,SSE,157,11.0,11.0,96,0.00,,,0.00,TxWx,2013-04-09 13:10:00,
2013-04-09 08:13:00,72.0,71.0,29.66,South,180,7.0,9.0,96,0.00,,,0.00,TxWx,2013-04-09 13:13:00,
2013-04-09 08:16:00,72.0,70.0,29.66,South,180,13.0,17.0,95,0.00,,,0.00,TxWx,2013-04-09 13:16:00,
2013-04-09 08:17:00,72.0,70.0,29.66,SSW,202,10.0,11.0,95,0.00,,,0.00,TxWx,2013-04-09 13:17:00,
2013-04-09 08:19:00,72.0,70.0,29.66,WSW,247,12.0,17.0,95,0.00,,,0.00,TxWx,2013-04-09 13:19:00,
2013-04-09 08:22:00,72.0,70.0,29.66,South,180,7.0,7.0,95,0.00,,,0.00,TxWx,2013-04-09 13:22:00,
2013-04-09 08:24:00,72.0,70.0,29.66,SW,225,10.0,13.0,95,0.00,,,0.00,TxWx,2013-04-09 13:24:00,
2013-04-09 08:26:00,72.0,70.0,29.66,SSE,157,14.0,14.0,94,0.00,,,0.00,TxWx,2013-04-09 13:26:00,
2013-04-09 08:27:00,72.0,70.0,29.66,SE,135,6.0,6.0,94,0.00,,,0.00,TxWx,2013-04-09 13:27:00,
2013-04-09 08:31:00,73.0,71.0,29.67,SSE,157,10.0,10.0,94,0.00,,,0.00,TxWx,2013-04-09 13:31:00,
2013-04-09 08:35:00,73.0,71.0,29.66,South,180,8.0,8.0,93,0.00,,,0.00,TxWx,2013-04-09 13:35:00,
2013-04-09 08:36:00,73.0,71.0,29.67,SSE,157,9.0,12.0,93,0.00,,,0.00,TxWx,2013-04-09 13:36:00,
2013-04-09 08:37:00,73.0,71.0,29.66,SSE,157,17.0,22.0,93,0.00,,,0.00,TxWx,2013-04-09 13:37:00,
2013-04-09 08:40:00,73.0,71.0,29.66,South,180,8.0,8.0,93,0.00,,,0.00,TxWx,2013-04-09 13:40:00,
2013-04-09 08:41:00,73.0,71.0,29.66,SSE,157,5.0,7.0,93,0.00,,,0.00,TxWx,2013-04-09 13:41:00,
2013-04-09 08:42:00,73.0,71.0,29.66,SSE,157,8.0,11.0,93,0.00,,,0.00,TxWx,2013-04-09 13:42:00,
2013-04-09 08:43:00,73.0,71.0,29.66,SSW,202,10.0,10.0,93,0.00,,,0.00,TxWx,2013-04-09 13:43:00,
2013-04-09 08:45:00,73.0,71.0,29.66,SSE,157,14.0,16.0,93,0.00,,,0.00,TxWx,2013-04-09 13:45:00,
2013-04-09 08:47:00,73.0,71.0,29.66,SSE,157,19.0,19.0,92,0.00,,,0.00,TxWx,2013-04-09 13:47:00,
2013-04-09 08:48:00,73.0,71.0,29.66,SSE,157,11.0,13.0,92,0.00,,,0.00,TxWx,2013-04-09 13:48:00,
2013-04-09 08:49:00,73.0,71.0,29.66,SE,135,6.0,10.0,92,0.00,,,0.00,TxWx,2013-04-09 13:49:00,
2013-04-09 08:51:00,73.0,70.0,29.66,South,180,10.0,13.0,92,0.00,,,0.00,TxWx,2013-04-09 13:51:00,
2013-04-09 08:54:00,73.0,70.0,29.66,SSW,202,11.0,11.0,92,0.00,,,0.00,TxWx,2013-04-09 13:54:00,
2013-04-09 08:55:00,73.0,70.0,29.66,SSW,202,8.0,8.0,92,0.00,,,0.00,TxWx,2013-04-09 13:55:00,
2013-04-09 08:56:00,73.0,70.0,29.66,SE,135,13.0,14.0,92,0.00,,,0.00,TxWx,2013-04-09 13:56:00,
2013-04-09 08:59:00,74.0,71.0,29.67,SSW,202,11.0,13.0,91,0.00,,,0.00,TxWx,2013-04-09 13:59:00,
2013-04-09 09:00:00,74.0,71.0,29.67,South,180,18.0,18.0,91,0.00,,,0.00,TxWx,2013-04-09 14:00:00,
2013-04-09 09:01:00,74.0,71.0,29.67,SSW,202,11.0,11.0,91,0.00,,,0.00,TxWx,2013-04-09 14:01:00,
2013-04-09 09:04:00,74.0,71.0,29.67,SSE,157,10.0,11.0,91,0.00,,,0.00,TxWx,2013-04-09 14:04:00,
2013-04-09 09:06:00,74.0,71.0,29.66,SSE,157,10.0,13.0,91,0.00,,,0.00,TxWx,2013-04-09 14:06:00,
2013-04-09 09:07:00,74.0,71.0,29.66,SE,135,8.0,9.0,91,0.00,,,0.00,TxWx,2013-04-09 14:07:00,
2013-04-09 09:11:00,74.0,71.0,29.66,SE,135,8.0,10.0,91,0.00,,,0.00,TxWx,2013-04-09 14:11:00,
2013-04-09 09:12:00,74.0,71.0,29.66,SE,135,7.0,8.0,91,0.00,,,0.00,TxWx,2013-04-09 14:12:00,
2013-04-09 09:13:00,74.0,71.0,29.66,SSW,202,12.0,13.0,91,0.00,,,0.00,TxWx,2013-04-09 14:13:00,
2013-04-09 09:14:00,74.0,71.0,29.66,SE,135,8.0,10.0,90,0.00,,,0.00,TxWx,2013-04-09 14:14:00,
2013-04-09 09:18:00,74.0,71.0,29.66,SSE,157,13.0,15.0,90,0.00,,,0.00,TxWx,2013-04-09 14:18:00,
2013-04-09 09:19:00,74.0,71.0,29.66,SSE,157,12.0,19.0,90,0.00,,,0.00,TxWx,2013-04-09 14:19:00,
2013-04-09 09:20:00,74.0,71.0,29.66,SE,135,11.0,13.0,90,0.00,,,0.00,TxWx,2013-04-09 14:20:00,
2013-04-09 09:24:00,74.0,71.0,29.66,South,180,14.0,17.0,90,0.00,,,0.00,TxWx,2013-04-09 14:24:00,
2013-04-09 09:25:00,74.0,71.0,29.66,SSW,202,16.0,18.0,90,0.00,,,0.00,TxWx,2013-04-09 14:25:00,
2013-04-09 09:26:00,74.0,71.0,29.66,SSE,157,10.0,11.0,90,0.00,,,0.00,TxWx,2013-04-09 14:26:00,
2013-04-09 09:31:00,74.0,71.0,29.66,SSE,157,18.0,19.0,90,0.00,,,0.00,TxWx,2013-04-09 14:31:00,
2013-04-09 09:32:00,74.0,71.0,29.66,West,270,9.0,12.0,90,0.00,,,0.00,TxWx,2013-04-09 14:32:00,
2013-04-09 09:34:00,74.0,71.0,29.66,SE,135,8.0,9.0,90,0.00,,,0.00,TxWx,2013-04-09 14:34:00,
2013-04-09 09:37:00,74.0,71.0,29.66,SSE,157,14.0,16.0,90,0.00,,,0.00,TxWx,2013-04-09 14:37:00,
2013-04-09 09:39:00,75.0,72.0,29.66,SE,135,6.0,6.0,90,0.00,,,0.00,TxWx,2013-04-09 14:39:00,
2013-04-09 09:40:00,74.0,71.0,29.66,South,180,16.0,19.0,90,0.00,,,0.00,TxWx,2013-04-09 14:40:00,
2013-04-09 09:44:00,74.0,71.0,29.66,SSE,157,15.0,15.0,90,0.00,,,0.00,TxWx,2013-04-09 14:44:00,
2013-04-09 09:45:00,74.0,71.0,29.66,SSW,202,9.0,10.0,90,0.00,,,0.00,TxWx,2013-04-09 14:45:00,
2013-04-09 09:50:00,74.0,71.0,29.67,SSW,202,13.0,16.0,90,0.00,,,0.00,TxWx,2013-04-09 14:50:00,
2013-04-09 09:51:00,74.0,71.0,29.67,SW,225,16.0,16.0,90,0.00,,,0.00,TxWx,2013-04-09 14:51:00,
2013-04-09 09:55:00,74.0,71.0,29.67,South,180,19.0,22.0,90,0.00,,,0.00,TxWx,2013-04-09 14:55:00,
2013-04-09 09:56:00,74.0,71.0,29.67,SW,225,14.0,14.0,90,0.00,,,0.00,TxWx,2013-04-09 14:56:00,
2013-04-09 09:57:00,74.0,71.0,29.67,SE,135,15.0,16.0,90,0.00,,,0.00,TxWx,2013-04-09 14:57:00,
2013-04-09 10:01:00,74.0,71.0,29.67,SSE,157,15.0,16.0,90,0.00,,,0.00,TxWx,2013-04-09 15:01:00,
2013-04-09 10:02:00,74.0,71.0,29.67,SSE,157,21.0,22.0,90,0.00,,,0.00,TxWx,2013-04-09 15:02:00,
2013-04-09 10:06:00,74.0,71.0,29.67,SSW,202,8.0,10.0,91,0.00,,,0.00,TxWx,2013-04-09 15:06:00,
2013-04-09 10:07:00,74.0,71.0,29.67,SE,135,8.0,10.0,91,0.00,,,0.00,TxWx,2013-04-09 15:07:00,
2013-04-09 10:09:00,74.0,71.0,29.67,SSE,157,12.0,12.0,90,0.00,,,0.00,TxWx,2013-04-09 15:09:00,
2013-04-09 10:12:00,74.0,71.0,29.67,South,180,16.0,16.0,90,0.00,,,0.00,TxWx,2013-04-09 15:12:00,
2013-04-09 10:13:00,74.0,71.0,29.67,South,180,19.0,20.0,90,0.00,,,0.00,TxWx,2013-04-09 15:13:00,
2013-04-09 10:14:00,74.0,71.0,29.67,SSE,157,13.0,19.0,90,0.00,,,0.00,TxWx,2013-04-09 15:14:00,
2013-04-09 10:15:00,74.0,71.0,29.68,South,180,16.0,16.0,90,0.00,,,0.00,TxWx,2013-04-09 15:15:00,
2013-04-09 10:19:00,74.0,71.0,29.67,SW,225,16.0,21.0,91,0.00,,,0.00,TxWx,2013-04-09 15:19:00,
2013-04-09 10:21:00,74.0,71.0,29.67,SSE,157,8.0,8.0,91,0.00,,,0.00,TxWx,2013-04-09 15:21:00,
2013-04-09 10:24:00,74.0,71.0,29.68,South,180,14.0,17.0,90,0.00,,,0.00,TxWx,2013-04-09 15:24:00,
2013-04-09 10:25:00,74.0,71.0,29.68,South,180,14.0,17.0,91,0.00,,,0.00,TxWx,2013-04-09 15:25:00,
2013-04-09 10:26:00,74.0,71.0,29.68,SSW,202,19.0,21.0,91,0.00,,,0.00,TxWx,2013-04-09 15:26:00,
2013-04-09 10:30:00,74.0,71.0,29.68,South,180,22.0,22.0,90,0.00,,,0.00,TxWx,2013-04-09 15:30:00,
2013-04-09 10:33:00,75.0,72.0,29.68,SW,225,10.0,11.0,91,0.00,,,0.00,TxWx,2013-04-09 15:33:00,
2013-04-09 10:34:00,74.0,71.0,29.69,SSE,157,21.0,22.0,91,0.00,,,0.00,TxWx,2013-04-09 15:34:00,
2013-04-09 10:36:00,74.0,71.0,29.69,SSW,202,14.0,19.0,90,0.00,,,0.00,TxWx,2013-04-09 15:36:00,
2013-04-09 10:37:00,74.0,71.0,29.69,SSW,202,18.0,18.0,90,0.00,,,0.00,TxWx,2013-04-09 15:37:00,
2013-04-09 10:39:00,74.0,71.0,29.69,WSW,247,10.0,11.0,90,0.00,,,0.00,TxWx,2013-04-09 15:39:00,
2013-04-09 10:40:00,75.0,72.0,29.69,SSW,202,10.0,10.0,91,0.00,,,0.00,TxWx,2013-04-09 15:40:00,
2013-04-09 10:41:00,75.0,72.0,29.69,SSE,157,12.0,12.0,90,0.00,,,0.00,TxWx,2013-04-09 15:41:00,
2013-04-09 10:43:00,75.0,72.0,29.68,South,180,7.0,7.0,90,0.00,,,0.00,TxWx,2013-04-09 15:43:00,
2013-04-09 10:46:00,75.0,72.0,29.68,SSE,157,16.0,18.0,90,0.00,,,0.00,TxWx,2013-04-09 15:46:00,
2013-04-09 10:47:00,75.0,72.0,29.68,SSW,202,22.0,22.0,90,0.00,,,0.00,TxWx,2013-04-09 15:47:00,
2013-04-09 10:49:00,75.0,72.0,29.69,SSW,202,8.0,9.0,90,0.00,,,0.00,TxWx,2013-04-09 15:49:00,
2013-04-09 10:52:00,75.0,72.0,29.69,South,180,17.0,21.0,90,0.00,,,0.00,TxWx,2013-04-09 15:52:00,
2013-04-09 10:55:00,75.0,72.0,29.69,SSE,157,11.0,12.0,90,0.00,,,0.00,TxWx,2013-04-09 15:55:00,
2013-04-09 10:57:00,75.0,72.0,29.69,SSE,157,10.0,10.0,90,0.00,,,0.00,TxWx,2013-04-09 15:57:00,
2013-04-09 10:59:00,75.0,72.0,29.69,South,180,13.0,13.0,90,0.00,,,0.00,TxWx,2013-04-09 15:59:00,
2013-04-09 11:00:00,75.0,72.0,29.69,SE,135,11.0,13.0,90,0.00,,,0.00,TxWx,2013-04-09 16:00:00,
2013-04-09 11:03:00,75.0,72.0,29.69,SSW,202,13.0,13.0,90,0.00,,,0.00,TxWx,2013-04-09 16:03:00,
2013-04-09 11:04:00,75.0,72.0,29.69,SSW,202,11.0,13.0,90,0.00,,,0.00,TxWx,2013-04-09 16:04:00,
2013-04-09 11:05:00,75.0,72.0,29.69,SSW,202,8.0,9.0,90,0.00,,,0.00,TxWx,2013-04-09 16:05:00,
2013-04-09 11:08:00,75.0,72.0,29.68,SE,135,8.0,8.0,89,0.00,,,0.00,TxWx,2013-04-09 16:08:00,
2013-04-09 11:10:00,75.0,72.0,29.69,SSE,157,13.0,13.0,89,0.00,,,0.00,TxWx,2013-04-09 16:10:00,
2013-04-09 11:12:00,76.0,73.0,29.69,SE,135,10.0,10.0,89,0.00,,,0.00,TxWx,2013-04-09 16:12:00,
2013-04-09 11:15:00,75.0,71.0,29.69,SSE,157,13.0,13.0,89,0.00,,,0.00,TxWx,2013-04-09 16:15:00,
2013-04-09 11:17:00,75.0,71.0,29.69,SSW,202,13.0,14.0,89,0.00,,,0.00,TxWx,2013-04-09 16:17:00,
2013-04-09 11:19:00,75.0,71.0,29.69,SSE,157,8.0,8.0,89,0.00,,,0.00,TxWx,2013-04-09 16:19:00,
2013-04-09 11:22:00,75.0,71.0,29.69,South,180,20.0,21.0,88,0.00,,,0.00,TxWx,2013-04-09 16:22:00,
2013-04-09 11:23:00,75.0,71.0,29.69,SSW,202,8.0,9.0,88,0.00,,,0.00,TxWx,2013-04-09 16:23:00,
2013-04-09 11:24:00,75.0,71.0,29.68,SSW,202,11.0,11.0,88,0.00,,,0.00,TxWx,2013-04-09 16:24:00,
2013-04-09 11:25:00,76.0,72.0,29.69,South,180,10.0,11.0,88,0.00,,,0.00,TxWx,2013-04-09 16:25:00,
2013-04-09 11:28:00,76.0,72.0,29.69,SSE,157,10.0,10.0,88,0.00,,,0.00,TxWx,2013-04-09 16:28:00,
2013-04-09 11:30:00,76.0,72.0,29.69,SSE,157,15.0,17.0,88,0.00,,,0.00,TxWx,2013-04-09 16:30:00,
2013-04-09 11:32:00,75.0,71.0,29.69,South,180,21.0,22.0,88,0.00,,,0.00,TxWx,2013-04-09 16:32:00,
2013-04-09 11:33:00,76.0,72.0,29.69,South,180,11.0,16.0,88,0.00,,,0.00,TxWx,2013-04-09 16:33:00,
2013-04-09 11:36:00,76.0,72.0,29.69,SSE,157,21.0,21.0,87,0.00,,,0.00,TxWx,2013-04-09 16:36:00,
2013-04-09 11:37:00,76.0,72.0,29.68,South,180,18.0,18.0,88,0.00,,,0.00,TxWx,2013-04-09 16:37:00,
2013-04-09 11:39:00,76.0,72.0,29.68,SSE,157,12.0,16.0,87,0.00,,,0.00,TxWx,2013-04-09 16:39:00,
2013-04-09 11:42:00,76.0,72.0,29.68,SSW,202,11.0,11.0,87,0.00,,,0.00,TxWx,2013-04-09 16:42:00,
2013-04-09 11:44:00,76.0,72.0,29.68,South,180,11.0,11.0,87,0.00,,,0.00,TxWx,2013-04-09 16:44:00,
2013-04-09 11:47:00,76.0,72.0,29.68,SSE,157,14.0,14.0,87,0.00,,,0.00,TxWx,2013-04-09 16:47:00,
2013-04-09 11:48:00,76.0,72.0,29.68,South,180,13.0,14.0,87,0.00,,,0.00,TxWx,2013-04-09 16:48:00,
2013-04-09 11:49:00,76.0,72.0,29.68,South,180,14.0,16.0,87,0.00,,,0.00,TxWx,2013-04-09 16:49:00,
2013-04-09 11:53:00,76.0,71.0,29.68,SSW,202,25.0,26.0,86,0.00,,,0.00,TxWx,2013-04-09 16:53:00,
2013-04-09 11:54:00,76.0,71.0,29.68,South,180,14.0,15.0,86,0.00,,,0.00,TxWx,2013-04-09 16:54:00,
2013-04-09 11:55:00,76.0,71.0,29.68,SSW,202,13.0,13.0,86,0.00,,,0.00,TxWx,2013-04-09 16:55:00,
2013-04-09 12:00:00,77.0,72.0,29.68,SSW,202,12.0,14.0,85,0.00,,,0.00,TxWx,2013-04-09 17:00:00,
2013-04-09 12:01:00,77.0,72.0,29.68,SSE,157,13.0,16.0,84,0.00,,,0.00,TxWx,2013-04-09 17:01:00,
2013-04-09 12:02:00,77.0,72.0,29.68,South,180,24.0,24.0,84,0.00,,,0.00,TxWx,2013-04-09 17:02:00,
2013-04-09 12:03:00,77.0,72.0,29.67,SSW,202,18.0,18.0,84,0.00,,,0.00,TxWx,2013-04-09 17:03:00,
2013-04-09 12:06:00,77.0,72.0,29.67,SSE,157,14.0,16.0,84,0.00,,,0.00,TxWx,2013-04-09 17:06:00,
2013-04-09 12:07:00,77.0,72.0,29.68,SSE,157,8.0,10.0,84,0.00,,,0.00,TxWx,2013-04-09 17:07:00,
2013-04-09 12:08:00,77.0,72.0,29.68,SSW,202,11.0,13.0,84,0.00,,,0.00,TxWx,2013-04-09 17:08:00,
2013-04-09 12:13:00,78.0,73.0,29.67,SSE,157,18.0,18.0,84,0.00,,,0.00,TxWx,2013-04-09 17:13:00,
2013-04-09 12:17:00,77.0,71.0,29.67,SSE,157,19.0,21.0,82,0.00,,,0.00,TxWx,2013-04-09 17:17:00,
2013-04-09 12:19:00,77.0,71.0,29.67,SSW,202,23.0,24.0,82,0.00,,,0.00,TxWx,2013-04-09 17:19:00,
2013-04-09 12:22:00,77.0,71.0,29.67,SSW,202,15.0,16.0,82,0.00,,,0.00,TxWx,2013-04-09 17:22:00,
2013-04-09 12:24:00,77.0,71.0,29.67,SSW,202,13.0,13.0,82,0.00,,,0.00,TxWx,2013-04-09 17:24:00,
2013-04-09 12:25:00,78.0,72.0,29.67,South,180,15.0,16.0,83,0.00,,,0.00,TxWx,2013-04-09 17:25:00,
2013-04-09 12:26:00,78.0,72.0,29.66,SSE,157,18.0,19.0,82,0.00,,,0.00,TxWx,2013-04-09 17:26:00,
2013-04-09 12:30:00,77.0,71.0,29.66,South,180,28.0,30.0,82,0.00,,,0.00,TxWx,2013-04-09 17:30:00,
2013-04-09 12:31:00,77.0,71.0,29.66,SSW,202,14.0,19.0,82,0.00,,,0.00,TxWx,2013-04-09 17:31:00,
2013-04-09 12:34:00,78.0,72.0,29.66,SSW,202,16.0,16.0,82,0.00,,,0.00,TxWx,2013-04-09 17:34:00,
2013-04-09 12:35:00,78.0,72.0,29.66,SSE,157,15.0,19.0,82,0.00,,,0.00,TxWx,2013-04-09 17:35:00,
2013-04-09 12:36:00,78.0,72.0,29.66,South,180,17.0,21.0,81,0.00,,,0.00,TxWx,2013-04-09 17:36:00,
2013-04-09 12:37:00,78.0,72.0,29.66,SSW,202,11.0,11.0,82,0.00,,,0.00,TxWx,2013-04-09 17:37:00,
2013-04-09 12:41:00,78.0,71.0,29.66,SE,135,11.0,18.0,81,0.00,,,0.00,TxWx,2013-04-09 17:41:00,
2013-04-09 12:42:00,78.0,72.0,29.66,ESE,112,8.0,10.0,81,0.00,,,0.00,TxWx,2013-04-09 17:42:00,
2013-04-09 12:45:00,78.0,72.0,29.65,South,180,14.0,19.0,81,0.00,,,0.00,TxWx,2013-04-09 17:45:00,
2013-04-09 12:46:00,78.0,72.0,29.66,SSW,202,14.0,20.0,81,0.00,,,0.00,TxWx,2013-04-09 17:46:00,
2013-04-09 12:47:00,78.0,72.0,29.66,SSE,157,11.0,11.0,81,0.00,,,0.00,TxWx,2013-04-09 17:47:00,
2013-04-09 12:49:00,78.0,72.0,29.66,SSW,202,17.0,17.0,81,0.00,,,0.00,TxWx,2013-04-09 17:49:00,
2013-04-09 12:50:00,78.0,71.0,29.65,SSW,202,14.0,18.0,81,0.00,,,0.00,TxWx,2013-04-09 17:50:00,
2013-04-09 12:51:00,78.0,71.0,29.66,SW,225,16.0,17.0,81,0.00,,,0.00,TxWx,2013-04-09 17:51:00,
2013-04-09 12:53:00,78.0,71.0,29.65,SSE,157,14.0,18.0,81,0.00,,,0.00,TxWx,2013-04-09 17:53:00,
2013-04-09 12:55:00,78.0,71.0,29.65,SSE,157,14.0,16.0,81,0.00,,,0.00,TxWx,2013-04-09 17:55:00,
2013-04-09 12:57:00,79.0,73.0,29.65,SE,135,18.0,18.0,81,0.00,,,0.00,TxWx,2013-04-09 17:57:00,
2013-04-09 12:58:00,79.0,72.0,29.65,SW,225,14.0,17.0,81,0.00,,,0.00,TxWx,2013-04-09 17:58:00,
2013-04-09 13:03:00,79.0,72.0,29.65,SSW,202,19.0,23.0,79,0.00,,,0.00,TxWx,2013-04-09 18:03:00,
2013-04-09 13:04:00,79.0,72.0,29.65,SSW,202,16.0,16.0,79,0.00,,,0.00,TxWx,2013-04-09 18:04:00,
2013-04-09 13:07:00,78.0,71.0,29.65,SSE,157,15.0,16.0,79,0.00,,,0.00,TxWx,2013-04-09 18:07:00,
2013-04-09 13:08:00,78.0,71.0,29.65,South,180,23.0,27.0,79,0.00,,,0.00,TxWx,2013-04-09 18:08:00,
2013-04-09 13:10:00,79.0,72.0,29.65,SSW,202,11.0,13.0,80,0.00,,,0.00,TxWx,2013-04-09 18:10:00,
2013-04-09 13:14:00,79.0,72.0,29.65,SSW,202,5.0,5.0,80,0.00,,,0.00,TxWx,2013-04-09 18:14:00,
2013-04-09 13:15:00,79.0,72.0,29.65,SSW,202,9.0,9.0,80,0.00,,,0.00,TxWx,2013-04-09 18:15:00,
2013-04-09 13:17:00,79.0,72.0,29.64,SSE,157,13.0,17.0,79,0.00,,,0.00,TxWx,2013-04-09 18:17:00,
2013-04-09 13:20:00,79.0,72.0,29.64,SSW,202,13.0,14.0,79,0.00,,,0.00,TxWx,2013-04-09 18:20:00,
2013-04-09 13:22:00,79.0,72.0,29.64,SSW,202,25.0,27.0,78,0.00,,,0.00,TxWx,2013-04-09 18:22:00,
2013-04-09 13:23:00,79.0,72.0,29.64,SSE,157,19.0,20.0,78,0.00,,,0.00,TxWx,2013-04-09 18:23:00,
2013-04-09 13:25:00,79.0,71.0,29.64,SSW,202,14.0,18.0,78,0.00,,,0.00,TxWx,2013-04-09 18:25:00,
2013-04-09 13:27:00,80.0,72.0,29.64,South,180,11.0,14.0,78,0.00,,,0.00,TxWx,2013-04-09 18:27:00,
2013-04-09 13:28:00,80.0,72.0,29.64,SSE,157,10.0,10.0,78,0.00,,,0.00,TxWx,2013-04-09 18:28:00,
2013-04-09 13:29:00,80.0,72.0,29.64,SW,225,9.0,11.0,78,0.00,,,0.00,TxWx,2013-04-09 18:29:00,
2013-04-09 13:30:00,79.0,71.0,29.64,South,180,23.0,24.0,78,0.00,,,0.00,TxWx,2013-04-09 18:30:00,
2013-04-09 13:32:00,79.0,71.0,29.63,South,180,23.0,24.0,77,0.00,,,0.00,TxWx,2013-04-09 18:32:00,
2013-04-09 13:33:00,79.0,71.0,29.63,SSW,202,5.0,5.0,78,0.00,,,0.00,TxWx,2013-04-09 18:33:00,
2013-04-09 13:34:00,80.0,72.0,29.63,SSW,202,10.0,11.0,78,0.00,,,0.00,TxWx,2013-04-09 18:34:00,
2013-04-09 13:36:00,80.0,72.0,29.63,South,180,9.0,9.0,78,0.00,,,0.00,TxWx,2013-04-09 18:36:00,
2013-04-09 13:39:00,80.0,72.0,29.63,SSW,202,8.0,8.0,78,0.00,,,0.00,TxWx,2013-04-09 18:39:00,
2013-04-09 13:40:00,80.0,72.0,29.63,SSW,202,9.0,10.0,78,0.00,,,0.00,TxWx,2013-04-09 18:40:00,
2013-04-09 13:42:00,79.0,71.0,29.63,SSE,157,27.0,27.0,78,0.00,,,0.00,TxWx,2013-04-09 18:42:00,
2013-04-09 13:44:00,79.0,72.0,29.63,South,180,24.0,26.0,78,0.00,,,0.00,TxWx,2013-04-09 18:44:00,
2013-04-09 13:46:00,78.0,71.0,29.62,South,180,19.0,19.0,79,0.00,,,0.00,TxWx,2013-04-09 18:46:00,
2013-04-09 13:47:00,79.0,72.0,29.62,SE,135,21.0,21.0,79,0.00,,,0.00,TxWx,2013-04-09 18:47:00,
2013-04-09 13:48:00,79.0,72.0,29.63,SSW,202,19.0,19.0,79,0.00,,,0.00,TxWx,2013-04-09 18:48:00,
2013-04-09 13:50:00,79.0,72.0,29.62,SSE,157,18.0,18.0,79,0.00,,,0.00,TxWx,2013-04-09 18:50:00,
2013-04-09 13:51:00,79.0,72.0,29.62,SSW,202,11.0,14.0,79,0.00,,,0.00,TxWx,2013-04-09 18:51:00,
2013-04-09 13:53:00,79.0,72.0,29.62,SSW,202,13.0,13.0,79,0.00,,,0.00,TxWx,2013-04-09 18:53:00,
2013-04-09 13:55:00,79.0,72.0,29.62,SE,135,17.0,17.0,79,0.00,,,0.00,TxWx,2013-04-09 18:55:00,
2013-04-09 13:56:00,79.0,72.0,29.62,SSE,157,25.0,25.0,79,0.00,,,0.00,TxWx,2013-04-09 18:56:00,
2013-04-09 14:01:00,79.0,72.0,29.62,SSE,157,17.0,17.0,79,0.00,,,0.00,TxWx,2013-04-09 19:01:00,
2013-04-09 14:04:00,78.0,71.0,29.62,South,180,19.0,21.0,79,0.00,,,0.00,TxWx,2013-04-09 19:04:00,
2013-04-09 14:07:00,79.0,72.0,29.62,South,180,16.0,18.0,80,0.00,,,0.00,TxWx,2013-04-09 19:07:00,
2013-04-09 14:08:00,78.0,71.0,29.61,South,180,16.0,21.0,79,0.00,,,0.00,TxWx,2013-04-09 19:08:00,
2013-04-09 14:09:00,78.0,71.0,29.61,SSW,202,18.0,18.0,80,0.00,,,0.00,TxWx,2013-04-09 19:09:00,
2013-04-09 14:13:00,79.0,72.0,29.61,South,180,23.0,23.0,80,0.00,,,0.00,TxWx,2013-04-09 19:13:00,
2013-04-09 14:14:00,79.0,72.0,29.61,SSE,157,11.0,11.0,80,0.00,,,0.00,TxWx,2013-04-09 19:14:00,
2013-04-09 14:15:00,80.0,73.0,29.61,SSE,157,8.0,11.0,80,0.00,,,0.00,TxWx,2013-04-09 19:15:00,
2013-04-09 14:20:00,79.0,72.0,29.61,South,180,10.0,16.0,79,0.00,,,0.00,TxWx,2013-04-09 19:20:00,
2013-04-09 14:21:00,79.0,72.0,29.61,SSE,157,19.0,20.0,79,0.00,,,0.00,TxWx,2013-04-09 19:21:00,
2013-04-09 14:25:00,79.0,72.0,29.61,SSW,202,18.0,26.0,79,0.00,,,0.00,TxWx,2013-04-09 19:25:00,
2013-04-09 14:26:00,79.0,72.0,29.61,South,180,23.0,24.0,80,0.00,,,0.00,TxWx,2013-04-09 19:26:00,
2013-04-09 14:27:00,79.0,72.0,29.61,South,180,21.0,25.0,79,0.00,,,0.00,TxWx,2013-04-09 19:27:00,
2013-04-09 14:28:00,78.0,71.0,29.61,SSE,157,24.0,26.0,79,0.00,,,0.00,TxWx,2013-04-09 19:28:00,
2013-04-09 14:30:00,78.0,71.0,29.61,SSE,157,17.0,20.0,80,0.00,,,0.00,TxWx,2013-04-09 19:30:00,
2013-04-09 14:32:00,79.0,72.0,29.61,South,180,23.0,23.0,80,0.00,,,0.00,TxWx,2013-04-09 19:32:00,
2013-04-09 14:36:00,79.0,72.0,29.61,SSE,157,13.0,14.0,80,0.00,,,0.00,TxWx,2013-04-09 19:36:00,
2013-04-09 14:37:00,79.0,72.0,29.61,SSE,157,18.0,19.0,80,0.00,,,0.00,TxWx,2013-04-09 19:37:00,
2013-04-09 14:38:00,79.0,72.0,29.60,South,180,13.0,21.0,80,0.00,,,0.00,TxWx,2013-04-09 19:38:00,
2013-04-09 14:42:00,80.0,73.0,29.61,SSE,157,7.0,10.0,80,0.00,,,0.00,TxWx,2013-04-09 19:42:00,
2013-04-09 14:43:00,79.0,72.0,29.60,SSE,157,27.0,27.0,80,0.00,,,0.00,TxWx,2013-04-09 19:43:00,
2013-04-09 14:45:00,79.0,72.0,29.60,ESE,112,15.0,15.0,79,0.00,,,0.00,TxWx,2013-04-09 19:45:00,
2013-04-09 14:47:00,79.0,72.0,29.60,SSW,202,19.0,19.0,79,0.00,,,0.00,TxWx,2013-04-09 19:47:00,
2013-04-09 14:50:00,79.0,72.0,29.60,SSW,202,23.0,23.0,79,0.00,,,0.00,TxWx,2013-04-09 19:50:00,
2013-04-09 14:51:00,79.0,72.0,29.60,South,180,20.0,21.0,79,0.00,,,0.00,TxWx,2013-04-09 19:51:00,
2013-04-09 14:55:00,79.0,72.0,29.59,SSE,157,13.0,16.0,80,0.00,,,0.00,TxWx,2013-04-09 19:55:00,
2013-04-09 14:58:00,79.0,72.0,29.59,SE,135,9.0,10.0,80,0.00,,,0.00,TxWx,2013-04-09 19:58:00,
2013-04-09 14:59:00,79.0,72.0,29.59,SE,135,16.0,19.0,79,0.00,,,0.00,TxWx,2013-04-09 19:59:00,
2013-04-09 15:01:00,79.0,72.0,29.59,SSE,157,22.0,22.0,79,0.00,,,0.00,TxWx,2013-04-09 20:01:00,
2013-04-09 15:05:00,79.0,72.0,29.59,SE,135,18.0,22.0,79,0.00,,,0.00,TxWx,2013-04-09 20:05:00,
2013-04-09 15:06:00,79.0,72.0,29.59,SSW,202,18.0,25.0,79,0.00,,,0.00,TxWx,2013-04-09 20:06:00,
2013-04-09 15:10:00,79.0,72.0,29.58,SSE,157,23.0,23.0,79,0.00,,,0.00,TxWx,2013-04-09 20:10:00,
2013-04-09 15:11:00,79.0,72.0,29.58,SSE,157,21.0,21.0,79,0.00,,,0.00,TxWx,2013-04-09 20:11:00,
2013-04-09 15:12:00,79.0,72.0,29.58,SSW,202,16.0,18.0,79,0.00,,,0.00,TxWx,2013-04-09 20:12:00,
2013-04-09 15:14:00,79.0,72.0,29.58,South,180,23.0,24.0,79,0.00,,,0.00,TxWx,2013-04-09 20:14:00,
2013-04-09 15:17:00,79.0,72.0,29.58,South,180,21.0,24.0,79,0.00,,,0.00,TxWx,2013-04-09 20:17:00,
2013-04-09 15:18:00,79.0,72.0,29.58,South,180,14.0,18.0,79,0.00,,,0.00,TxWx,2013-04-09 20:18:00,
2013-04-09 15:19:00,79.0,72.0,29.58,SSW,202,27.0,27.0,79,0.00,,,0.00,TxWx,2013-04-09 20:19:00,
2013-04-09 15:21:00,79.0,72.0,29.58,SE,135,16.0,16.0,79,0.00,,,0.00,TxWx,2013-04-09 20:21:00,
2013-04-09 15:24:00,79.0,72.0,29.58,SSE,157,13.0,16.0,79,0.00,,,0.00,TxWx,2013-04-09 20:24:00,
2013-04-09 15:26:00,79.0,72.0,29.57,South,180,20.0,20.0,80,0.00,,,0.00,TxWx,2013-04-09 20:26:00,
2013-04-09 15:27:00,80.0,73.0,29.57,South,180,8.0,10.0,80,0.00,,,0.00,TxWx,2013-04-09 20:27:00,
2013-04-09 15:30:00,80.0,73.0,29.57,South,180,10.0,11.0,79,0.00,,,0.00,TxWx,2013-04-09 20:30:00,
2013-04-09 15:32:00,79.0,72.0,29.57,SSE,157,20.0,22.0,78,0.00,,,0.00,TxWx,2013-04-09 20:32:00,
2013-04-09 15:33:00,79.0,72.0,29.57,SSW,202,19.0,21.0,79,0.00,,,0.00,TxWx,2013-04-09 20:33:00,
2013-04-09 15:36:00,79.0,72.0,29.57,SSW,202,21.0,21.0,79,0.00,,,0.00,TxWx,2013-04-09 20:36:00,
2013-04-09 15:38:00,79.0,72.0,29.57,South,180,21.0,24.0,79,0.00,,,0.00,TxWx,2013-04-09 20:38:00,
2013-04-09 15:39:00,79.0,72.0,29.57,SSE,157,24.0,24.0,79,0.00,,,0.00,TxWx,2013-04-09 20:39:00,
2013-04-09 15:43:00,80.0,73.0,29.57,SSE,157,18.0,19.0,80,0.00,,,0.00,TxWx,2013-04-09 20:43:00,
2013-04-09 15:44:00,79.0,72.0,29.57,South,180,19.0,19.0,79,0.00,,,0.00,TxWx,2013-04-09 20:44:00,
2013-04-09 15:45:00,79.0,72.0,29.57,South,180,18.0,20.0,79,0.00,,,0.00,TxWx,2013-04-09 20:45:00,
2013-04-09 15:50:00,80.0,73.0,29.57,SSE,157,19.0,22.0,79,0.00,,,0.00,TxWx,2013-04-09 20:50:00,
2013-04-09 15:51:00,80.0,73.0,29.57,SSE,157,16.0,18.0,79,0.00,,,0.00,TxWx,2013-04-09 20:51:00,
2013-04-09 15:52:00,80.0,73.0,29.57,South,180,10.0,10.0,79,0.00,,,0.00,TxWx,2013-04-09 20:52:00,
2013-04-09 15:55:00,80.0,73.0,29.57,SE,135,14.0,15.0,79,0.00,,,0.00,TxWx,2013-04-09 20:55:00,
2013-04-09 15:57:00,80.0,73.0,29.57,South,180,21.0,21.0,80,0.00,,,0.00,TxWx,2013-04-09 20:57:00,
2013-04-09 15:58:00,80.0,73.0,29.57,SSW,202,8.0,13.0,79,0.00,,,0.00,TxWx,2013-04-09 20:58:00,
2013-04-09 16:01:00,79.0,72.0,29.57,SSE,157,14.0,22.0,79,0.00,,,0.00,TxWx,2013-04-09 21:01:00,
2013-04-09 16:03:00,80.0,73.0,29.57,SSW,202,17.0,17.0,79,0.00,,,0.00,TxWx,2013-04-09 21:03:00,
2013-04-09 16:07:00,79.0,72.0,29.57,SSW,202,14.0,16.0,80,0.00,,,0.00,TxWx,2013-04-09 21:07:00,
2013-04-09 16:08:00,79.0,72.0,29.57,SSE,157,29.0,29.0,80,0.00,,,0.00,TxWx,2013-04-09 21:08:00,
2013-04-09 16:13:00,79.0,72.0,29.57,SW,225,14.0,18.0,80,0.00,,,0.00,TxWx,2013-04-09 21:13:00,
2013-04-09 16:14:00,79.0,72.0,29.56,SE,135,9.0,9.0,81,0.00,,,0.00,TxWx,2013-04-09 21:14:00,
2013-04-09 16:17:00,79.0,72.0,29.56,South,180,12.0,17.0,81,0.00,,,0.00,TxWx,2013-04-09 21:17:00,
2013-04-09 16:18:00,79.0,72.0,29.56,South,180,22.0,22.0,81,0.00,,,0.00,TxWx,2013-04-09 21:18:00,
2013-04-09 16:20:00,79.0,73.0,29.56,South,180,22.0,23.0,81,0.00,,,0.00,TxWx,2013-04-09 21:20:00,
2013-04-09 16:25:00,79.0,73.0,29.56,SSE,157,17.0,18.0,82,0.00,,,0.00,TxWx,2013-04-09 21:25:00,
2013-04-09 16:26:00,79.0,73.0,29.56,SSE,157,21.0,21.0,82,0.00,,,0.00,TxWx,2013-04-09 21:26:00,
2013-04-09 16:27:00,79.0,73.0,29.56,SE,135,23.0,26.0,82,0.00,,,0.00,TxWx,2013-04-09 21:27:00,
2013-04-09 16:31:00,79.0,73.0,29.56,SE,135,15.0,19.0,82,0.00,,,0.00,TxWx,2013-04-09 21:31:00,
2013-04-09 16:32:00,78.0,72.0,29.56,South,180,14.0,14.0,82,0.00,,,0.00,TxWx,2013-04-09 21:32:00,
2013-04-09 16:33:00,79.0,73.0,29.56,SSE,157,10.0,10.0,83,0.00,,,0.00,TxWx,2013-04-09 21:33:00,
2013-04-09 16:37:00,78.0,72.0,29.56,SE,135,18.0,19.0,83,0.00,,,0.00,TxWx,2013-04-09 21:37:00,
2013-04-09 16:38:00,78.0,72.0,29.56,SSE,157,16.0,19.0,83,0.00,,,0.00,TxWx,2013-04-09 21:38:00,
2013-04-09 16:40:00,79.0,74.0,29.56,South,180,11.0,11.0,84,0.00,,,0.00,TxWx,2013-04-09 21:40:00,
2013-04-09 16:43:00,78.0,72.0,29.56,SSW,202,23.0,26.0,83,0.00,,,0.00,TxWx,2013-04-09 21:43:00,
2013-04-09 16:44:00,78.0,72.0,29.56,South,180,28.0,31.0,83,0.00,,,0.00,TxWx,2013-04-09 21:44:00,
2013-04-09 16:45:00,78.0,73.0,29.56,SSE,157,16.0,16.0,84,0.00,,,0.00,TxWx,2013-04-09 21:45:00,
2013-04-09 16:48:00,79.0,73.0,29.56,South,180,11.0,12.0,83,0.00,,,0.00,TxWx,2013-04-09 21:48:00,
2013-04-09 16:49:00,79.0,73.0,29.56,South,180,14.0,14.0,83,0.00,,,0.00,TxWx,2013-04-09 21:49:00,
2013-04-09 16:51:00,79.0,73.0,29.56,South,180,16.0,19.0,83,0.00,,,0.00,TxWx,2013-04-09 21:51:00,
2013-04-09 16:53:00,79.0,73.0,29.56,South,180,13.0,15.0,83,0.00,,,0.00,TxWx,2013-04-09 21:53:00,
2013-04-09 16:54:00,79.0,73.0,29.56,SSE,157,20.0,24.0,83,0.00,,,0.00,TxWx,2013-04-09 21:54:00,
2013-04-09 16:58:00,79.0,73.0,29.56,South,180,19.0,23.0,83,0.00,,,0.00,TxWx,2013-04-09 21:58:00,
2013-04-09 16:59:00,79.0,73.0,29.56,South,180,19.0,22.0,83,0.00,,,0.00,TxWx,2013-04-09 21:59:00,
2013-04-09 17:00:00,78.0,72.0,29.56,SSE,157,19.0,19.0,83,0.00,,,0.00,TxWx,2013-04-09 22:00:00,
2013-04-09 17:01:00,78.0,72.0,29.56,South,180,18.0,18.0,83,0.00,,,0.00,TxWx,2013-04-09 22:01:00,
2013-04-09 17:04:00,79.0,73.0,29.56,SE,135,19.0,27.0,83,0.00,,,0.00,TxWx,2013-04-09 22:04:00,
2013-04-09 17:06:00,78.0,72.0,29.56,SSE,157,23.0,23.0,83,0.00,,,0.00,TxWx,2013-04-09 22:06:00,
2013-04-09 17:07:00,78.0,72.0,29.57,SSE,157,19.0,19.0,83,0.00,,,0.00,TxWx,2013-04-09 22:07:00,
2013-04-09 17:11:00,78.0,73.0,29.56,SSW,202,21.0,22.0,84,0.00,,,0.00,TxWx,2013-04-09 22:11:00,
2013-04-09 17:16:00,78.0,73.0,29.57,SSW,202,19.0,23.0,84,0.00,,,0.00,TxWx,2013-04-09 22:16:00,
2013-04-09 17:17:00,78.0,73.0,29.56,SSW,202,18.0,18.0,84,0.00,,,0.00,TxWx,2013-04-09 22:17:00,
2013-04-09 17:19:00,78.0,73.0,29.57,South,180,28.0,29.0,84,0.00,,,0.00,TxWx,2013-04-09 22:19:00,
2013-04-09 17:22:00,78.0,73.0,29.57,South,180,23.0,24.0,84,0.00,,,0.00,TxWx,2013-04-09 22:22:00,
2013-04-09 17:23:00,78.0,73.0,29.56,SSE,157,13.0,13.0,85,0.00,,,0.00,TxWx,2013-04-09 22:23:00,
2013-04-09 17:24:00,79.0,74.0,29.56,SE,135,7.0,8.0,85,0.00,,,0.00,TxWx,2013-04-09 22:24:00,
2013-04-09 17:28:00,78.0,73.0,29.56,SSW,202,11.0,12.0,84,0.00,,,0.00,TxWx,2013-04-09 22:28:00,
2013-04-09 17:29:00,78.0,73.0,29.57,South,180,18.0,24.0,84,0.00,,,0.00,TxWx,2013-04-09 22:29:00,
2013-04-09 17:30:00,78.0,73.0,29.57,South,180,9.0,11.0,84,0.00,,,0.00,TxWx,2013-04-09 22:30:00,
2013-04-09 17:33:00,78.0,73.0,29.57,SE,135,16.0,22.0,84,0.00,,,0.00,TxWx,2013-04-09 22:33:00,
2013-04-09 17:35:00,78.0,73.0,29.57,SSE,157,12.0,16.0,84,0.00,,,0.00,TxWx,2013-04-09 22:35:00,
2013-04-09 17:37:00,78.0,73.0,29.57,SSE,157,25.0,25.0,84,0.00,,,0.00,TxWx,2013-04-09 22:37:00,
2013-04-09 17:39:00,78.0,73.0,29.57,South,180,16.0,20.0,84,0.00,,,0.00,TxWx,2013-04-09 22:39:00,
2013-04-09 17:40:00,78.0,73.0,29.57,South,180,10.0,12.0,84,0.00,,,0.00,TxWx,2013-04-09 22:40:00,
2013-04-09 17:42:00,78.0,73.0,29.57,SE,135,11.0,11.0,84,0.00,,,0.00,TxWx,2013-04-09 22:42:00,
2013-04-09 17:44:00,78.0,73.0,29.57,SSE,157,14.0,14.0,84,0.00,,,0.00,TxWx,2013-04-09 22:44:00,
2013-04-09 17:47:00,78.0,73.0,29.57,South,180,19.0,29.0,84,0.00,,,0.00,TxWx,2013-04-09 22:47:00,
2013-04-09 17:49:00,77.0,72.0,29.57,SSE,157,19.0,21.0,84,0.00,,,0.00,TxWx,2013-04-09 22:49:00,
2013-04-09 17:52:00,77.0,72.0,29.56,SSW,202,27.0,28.0,85,0.00,,,0.00,TxWx,2013-04-09 22:52:00,
2013-04-09 17:54:00,77.0,72.0,29.56,SSE,157,6.0,7.0,85,0.00,,,0.00,TxWx,2013-04-09 22:54:00,
2013-04-09 17:55:00,78.0,73.0,29.56,South,180,11.0,11.0,85,0.00,,,0.00,TxWx,2013-04-09 22:55:00,
2013-04-09 17:59:00,78.0,72.0,29.56,SSE,157,14.0,14.0,85,0.00,,,0.00,TxWx,2013-04-09 22:59:00,
2013-04-09 18:00:00,77.0,72.0,29.56,SSW,202,16.0,19.0,85,0.00,,,0.00,TxWx,2013-04-09 23:00:00,
2013-04-09 18:03:00,77.0,72.0,29.56,SSE,157,22.0,25.0,85,0.00,,,0.00,TxWx,2013-04-09 23:03:00,
2013-04-09 18:05:00,77.0,72.0,29.56,South,180,14.0,14.0,86,0.00,,,0.00,TxWx,2013-04-09 23:05:00,
2013-04-09 18:08:00,77.0,72.0,29.56,SE,135,20.0,26.0,86,0.00,,,0.00,TxWx,2013-04-09 23:08:00,
2013-04-09 18:09:00,77.0,72.0,29.56,SSE,157,11.0,11.0,86,0.00,,,0.00,TxWx,2013-04-09 23:09:00,
2013-04-09 18:10:00,77.0,72.0,29.56,South,180,14.0,14.0,86,0.00,,,0.00,TxWx,2013-04-09 23:10:00,
2013-04-09 18:14:00,77.0,72.0,29.56,South,180,19.0,22.0,86,0.00,,,0.00,TxWx,2013-04-09 23:14:00,
2013-04-09 18:15:00,77.0,72.0,29.56,South,180,14.0,16.0,86,0.00,,,0.00,TxWx,2013-04-09 23:15:00,
2013-04-09 18:16:00,77.0,72.0,29.56,SSW,202,13.0,17.0,86,0.00,,,0.00,TxWx,2013-04-09 23:16:00,
2013-04-09 18:20:00,77.0,72.0,29.56,South,180,7.0,7.0,86,0.00,,,0.00,TxWx,2013-04-09 23:20:00,
2013-04-09 18:21:00,77.0,72.0,29.56,South,180,13.0,14.0,86,0.00,,,0.00,TxWx,2013-04-09 23:21:00,
2013-04-09 18:25:00,77.0,73.0,29.56,South,180,14.0,17.0,87,0.00,,,0.00,TxWx,2013-04-09 23:25:00,
2013-04-09 18:26:00,77.0,73.0,29.56,SSE,157,15.0,16.0,87,0.00,,,0.00,TxWx,2013-04-09 23:26:00,
2013-04-09 18:27:00,77.0,73.0,29.56,SE,135,25.0,27.0,87,0.00,,,0.00,TxWx,2013-04-09 23:27:00,
2013-04-09 18:30:00,77.0,73.0,29.56,SSW,202,11.0,18.0,87,0.00,,,0.00,TxWx,2013-04-09 23:30:00,
2013-04-09 18:31:00,77.0,73.0,29.56,SSE,157,26.0,26.0,87,0.00,,,0.00,TxWx,2013-04-09 23:31:00,
2013-04-09 18:32:00,77.0,73.0,29.56,South,180,18.0,22.0,87,0.00,,,0.00,TxWx,2013-04-09 23:32:00,
2013-04-09 18:33:00,77.0,73.0,29.56,South,180,11.0,12.0,87,0.00,,,0.00,TxWx,2013-04-09 23:33:00,
2013-04-09 18:36:00,76.0,72.0,29.56,South,180,19.0,19.0,87,0.00,,,0.00,TxWx,2013-04-09 23:36:00,
2013-04-09 18:38:00,77.0,73.0,29.56,SSE,157,16.0,23.0,87,0.00,,,0.00,TxWx,2013-04-09 23:38:00,
2013-04-09 18:41:00,76.0,72.0,29.57,South,180,27.0,27.0,87,0.00,,,0.00,TxWx,2013-04-09 23:41:00,
2013-04-09 18:42:00,76.0,72.0,29.56,SSW,202,22.0,24.0,88,0.00,,,0.00,TxWx,2013-04-09 23:42:00,
2013-04-09 18:45:00,76.0,72.0,29.57,South,180,12.0,12.0,88,0.00,,,0.00,TxWx,2013-04-09 23:45:00,
2013-04-09 18:47:00,76.0,72.0,29.57,SSE,157,17.0,18.0,88,0.00,,,0.00,TxWx,2013-04-09 23:47:00,
2013-04-09 18:51:00,76.0,72.0,29.57,SSE,157,28.0,28.0,88,0.00,,,0.00,TxWx,2013-04-09 23:51:00,
2013-04-09 18:52:00,76.0,72.0,29.57,SSE,157,14.0,14.0,89,0.00,,,0.00,TxWx,2013-04-09 23:52:00,
2013-04-09 18:56:00,76.0,72.0,29.57,SSE,157,15.0,15.0,89,0.00,,,0.00,TxWx,2013-04-09 23:56:00,
2013-04-09 18:57:00,76.0,72.0,29.57,SW,225,16.0,19.0,89,0.00,,,0.00,TxWx,2013-04-09 23:57:00,
2013-04-09 18:58:00,76.0,73.0,29.57,South,180,24.0,24.0,89,0.00,,,0.00,TxWx,2013-04-09 23:58:00,
2013-04-09 19:02:00,76.0,73.0,29.57,South,180,19.0,19.0,89,0.00,,,0.00,TxWx,2013-04-10 00:02:00,
2013-04-09 19:03:00,76.0,73.0,29.57,SSW,202,10.0,10.0,90,0.00,,,0.00,TxWx,2013-04-10 00:03:00,
2013-04-09 19:07:00,75.0,72.0,29.57,SSE,157,13.0,14.0,90,0.00,,,0.00,TxWx,2013-04-10 00:07:00,
2013-04-09 19:09:00,75.0,72.0,29.57,SSW,202,16.0,16.0,90,0.00,,,0.00,TxWx,2013-04-10 00:09:00,
2013-04-09 19:10:00,75.0,72.0,29.57,SW,225,14.0,22.0,90,0.00,,,0.00,TxWx,2013-04-10 00:10:00,
2013-04-09 19:11:00,75.0,72.0,29.57,South,180,18.0,21.0,90,0.00,,,0.00,TxWx,2013-04-10 00:11:00,
2013-04-09 19:14:00,75.0,72.0,29.57,South,180,12.0,12.0,91,0.00,,,0.00,TxWx,2013-04-10 00:14:00,
2013-04-09 19:16:00,75.0,72.0,29.57,SSE,157,12.0,16.0,91,0.00,,,0.00,TxWx,2013-04-10 00:16:00,
2013-04-09 19:19:00,75.0,72.0,29.57,South,180,18.0,20.0,91,0.00,,,0.00,TxWx,2013-04-10 00:19:00,
2013-04-09 19:21:00,75.0,72.0,29.58,SSW,202,10.0,10.0,91,0.00,,,0.00,TxWx,2013-04-10 00:21:00,
2013-04-09 19:22:00,75.0,72.0,29.58,South,180,14.0,18.0,91,0.00,,,0.00,TxWx,2013-04-10 00:22:00,
2013-04-09 19:25:00,75.0,72.0,29.58,SSE,157,11.0,14.0,91,0.00,,,0.00,TxWx,2013-04-10 00:25:00,
2013-04-09 19:30:00,75.0,73.0,29.58,SSE,157,9.0,10.0,92,0.00,,,0.00,TxWx,2013-04-10 00:30:00,
2013-04-09 19:31:00,75.0,73.0,29.58,SSW,202,15.0,15.0,92,0.00,,,0.00,TxWx,2013-04-10 00:31:00,
2013-04-09 19:35:00,75.0,73.0,29.59,SSE,157,8.0,11.0,92,0.00,,,0.00,TxWx,2013-04-10 00:35:00,
2013-04-09 19:37:00,75.0,73.0,29.59,SSW,202,23.0,23.0,92,0.00,,,0.00,TxWx,2013-04-10 00:37:00,
2013-04-09 19:38:00,75.0,73.0,29.58,SSE,157,19.0,19.0,93,0.00,,,0.00,TxWx,2013-04-10 00:38:00,
2013-04-09 19:41:00,75.0,73.0,29.59,SSE,157,10.0,10.0,93,0.00,,,0.00,TxWx,2013-04-10 00:41:00,
2013-04-09 19:43:00,75.0,73.0,29.59,South,180,15.0,15.0,93,0.00,,,0.00,TxWx,2013-04-10 00:43:00,
2013-04-09 19:44:00,75.0,73.0,29.59,South,180,11.0,12.0,93,0.00,,,0.00,TxWx,2013-04-10 00:44:00,
2013-04-09 19:47:00,75.0,73.0,29.59,SSE,157,15.0,18.0,93,0.00,,,0.00,TxWx,2013-04-10 00:47:00,
2013-04-09 19:49:00,75.0,73.0,29.59,SSW,202,6.0,6.0,93,0.00,,,0.00,TxWx,2013-04-10 00:49:00,
2013-04-09 19:51:00,75.0,73.0,29.59,South,180,11.0,11.0,93,0.00,,,0.00,TxWx,2013-04-10 00:51:00,
2013-04-09 19:52:00,75.0,73.0,29.59,SSE,157,19.0,19.0,93,0.00,,,0.00,TxWx,2013-04-10 00:52:00,
2013-04-09 19:55:00,75.0,73.0,29.59,SSE,157,11.0,11.0,94,0.00,,,0.00,TxWx,2013-04-10 00:55:00,
2013-04-09 19:58:00,74.0,72.0,29.59,SW,225,12.0,12.0,94,0.00,,,0.00,TxWx,2013-04-10 00:58:00,
2013-04-09 19:59:00,74.0,72.0,29.59,SSE,157,16.0,18.0,94,0.00,,,0.00,TxWx,2013-04-10 00:59:00,
2013-04-09 20:01:00,74.0,72.0,29.59,South,180,13.0,13.0,94,0.00,,,0.00,TxWx,2013-04-10 01:01:00,
2013-04-09 20:03:00,74.0,72.0,29.58,SE,135,8.0,10.0,94,0.00,,,0.00,TxWx,2013-04-10 01:03:00,
2013-04-09 20:04:00,74.0,72.0,29.59,SSE,157,8.0,10.0,94,0.00,,,0.00,TxWx,2013-04-10 01:04:00,
2013-04-09 20:06:00,74.0,72.0,29.59,SSE,157,16.0,16.0,94,0.00,,,0.00,TxWx,2013-04-10 01:06:00,
2013-04-09 20:08:00,74.0,72.0,29.59,South,180,16.0,18.0,94,0.00,,,0.00,TxWx,2013-04-10 01:08:00,
2013-04-09 20:09:00,74.0,72.0,29.59,SSE,157,23.0,23.0,94,0.00,,,0.00,TxWx,2013-04-10 01:09:00,
2013-04-09 20:10:00,74.0,72.0,29.59,SE,135,13.0,18.0,94,0.00,,,0.00,TxWx,2013-04-10 01:10:00,
2013-04-09 20:11:00,74.0,72.0,29.59,SW,225,8.0,9.0,94,0.00,,,0.00,TxWx,2013-04-10 01:11:00,
2013-04-09 20:14:00,74.0,72.0,29.59,SE,135,16.0,16.0,95,0.00,,,0.00,TxWx,2013-04-10 01:14:00,
2013-04-09 20:15:00,74.0,72.0,29.59,SSW,202,9.0,12.0,95,0.00,,,0.00,TxWx,2013-04-10 01:15:00,
2013-04-09 20:16:00,74.0,72.0,29.59,SSW,202,13.0,14.0,95,0.00,,,0.00,TxWx,2013-04-10 01:16:00,
2013-04-09 20:20:00,74.0,72.0,29.59,SSW,202,11.0,11.0,95,0.00,,,0.00,TxWx,2013-04-10 01:20:00,
2013-04-09 20:21:00,74.0,72.0,29.59,SSE,157,10.0,10.0,95,0.00,,,0.00,TxWx,2013-04-10 01:21:00,
2013-04-09 20:22:00,74.0,72.0,29.58,SE,135,11.0,13.0,95,0.00,,,0.00,TxWx,2013-04-10 01:22:00,
2013-04-09 20:25:00,74.0,72.0,29.59,SSE,157,14.0,18.0,95,0.00,,,0.00,TxWx,2013-04-10 01:25:00,
2013-04-09 20:27:00,74.0,72.0,29.59,South,180,23.0,24.0,95,0.00,,,0.00,TxWx,2013-04-10 01:27:00,
2013-04-09 20:28:00,74.0,72.0,29.59,South,180,13.0,13.0,95,0.00,,,0.00,TxWx,2013-04-10 01:28:00,
2013-04-09 20:31:00,74.0,72.0,29.59,ESE,112,12.0,13.0,95,0.00,,,0.00,TxWx,2013-04-10 01:31:00,
2013-04-09 20:34:00,74.0,72.0,29.59,SE,135,24.0,24.0,95,0.00,,,0.00,TxWx,2013-04-10 01:34:00,
2013-04-09 20:37:00,74.0,72.0,29.59,SSE,157,14.0,14.0,95,0.00,,,0.00,TxWx,2013-04-10 01:37:00,
2013-04-09 20:39:00,74.0,72.0,29.59,South,180,21.0,24.0,95,0.00,,,0.00,TxWx,2013-04-10 01:39:00,
2013-04-09 20:40:00,74.0,72.0,29.59,South,180,13.0,16.0,95,0.00,,,0.00,TxWx,2013-04-10 01:40:00,
2013-04-09 20:43:00,74.0,72.0,29.59,SSE,157,17.0,19.0,95,0.00,,,0.00,TxWx,2013-04-10 01:43:00,
2013-04-09 20:44:00,74.0,72.0,29.59,SSE,157,12.0,14.0,95,0.00,,,0.00,TxWx,2013-04-10 01:44:00,
2013-04-09 20:46:00,74.0,72.0,29.59,SSE,157,19.0,19.0,95,0.00,,,0.00,TxWx,2013-04-10 01:46:00,
2013-04-09 20:47:00,74.0,72.0,29.59,East,90,12.0,12.0,95,0.00,,,0.00,TxWx,2013-04-10 01:47:00,
2013-04-09 20:48:00,74.0,72.0,29.59,SSE,157,14.0,14.0,95,0.00,,,0.00,TxWx,2013-04-10 01:48:00,
2013-04-09 20:51:00,74.0,72.0,29.59,SSW,202,10.0,11.0,95,0.00,,,0.00,TxWx,2013-04-10 01:51:00,
2013-04-09 20:52:00,74.0,72.0,29.59,SSE,157,13.0,16.0,95,0.00,,,0.00,TxWx,2013-04-10 01:52:00,
2013-04-09 20:53:00,74.0,72.0,29.59,SE,135,15.0,18.0,95,0.00,,,0.00,TxWx,2013-04-10 01:53:00,
2013-04-09 20:56:00,74.0,72.0,29.60,SSE,157,18.0,19.0,95,0.00,,,0.00,TxWx,2013-04-10 01:56:00,
2013-04-09 20:57:00,74.0,72.0,29.60,SSE,157,24.0,24.0,95,0.00,,,0.00,TxWx,2013-04-10 01:57:00,
2013-04-09 20:58:00,74.0,72.0,29.60,South,180,29.0,33.0,95,0.00,,,0.00,TxWx,2013-04-10 01:58:00,
2013-04-09 21:02:00,74.0,72.0,29.61,SW,225,8.0,9.0,95,0.00,,,0.00,TxWx,2013-04-10 02:02:00,
2013-04-09 21:03:00,74.0,72.0,29.61,SSE,157,13.0,13.0,95,0.00,,,0.00,TxWx,2013-04-10 02:03:00,
2013-04-09 21:04:00,74.0,72.0,29.61,SSW,202,16.0,16.0,95,0.00,,,0.00,TxWx,2013-04-10 02:04:00,
2013-04-09 21:08:00,74.0,72.0,29.61,South,180,24.0,24.0,95,0.00,,,0.00,TxWx,2013-04-10 02:08:00,
2013-04-09 21:10:00,74.0,72.0,29.62,South,180,14.0,14.0,95,0.00,,,0.00,TxWx,2013-04-10 02:10:00,
2013-04-09 21:11:00,74.0,72.0,29.62,South,180,12.0,12.0,95,0.00,,,0.00,TxWx,2013-04-10 02:11:00,
2013-04-09 21:13:00,74.0,72.0,29.62,SSE,157,27.0,27.0,95,0.00,,,0.00,TxWx,2013-04-10 02:13:00,
2013-04-09 21:14:00,74.0,72.0,29.62,South,180,24.0,24.0,95,0.00,,,0.00,TxWx,2013-04-10 02:14:00,
2013-04-09 21:16:00,74.0,72.0,29.62,SE,135,14.0,16.0,95,0.00,,,0.00,TxWx,2013-04-10 02:16:00,
2013-04-09 21:17:00,74.0,72.0,29.62,SSE,157,19.0,19.0,95,0.00,,,0.00,TxWx,2013-04-10 02:17:00,
2013-04-09 21:19:00,74.0,72.0,29.62,South,180,10.0,11.0,95,0.00,,,0.00,TxWx,2013-04-10 02:19:00,
2013-04-09 21:21:00,75.0,73.0,29.63,SSW,202,6.0,6.0,95,0.00,,,0.00,TxWx,2013-04-10 02:21:00,
2013-04-09 21:23:00,75.0,73.0,29.63,South,180,14.0,14.0,95,0.00,,,0.00,TxWx,2013-04-10 02:23:00,
2013-04-09 21:25:00,75.0,73.0,29.63,SW,225,8.0,8.0,95,0.00,,,0.00,TxWx,2013-04-10 02:25:00,
2013-04-09 21:26:00,75.0,73.0,29.63,SE,135,16.0,16.0,95,0.00,,,0.00,TxWx,2013-04-10 02:26:00,
2013-04-09 21:28:00,75.0,73.0,29.63,SSW,202,26.0,27.0,95,0.00,,,0.00,TxWx,2013-04-10 02:28:00,
2013-04-09 21:30:00,75.0,73.0,29.63,SSE,157,10.0,11.0,95,0.00,,,0.00,TxWx,2013-04-10 02:30:00,
2013-04-09 21:35:00,75.0,73.0,29.63,SSE,157,10.0,10.0,95,0.00,,,0.00,TxWx,2013-04-10 02:35:00,
2013-04-09 21:38:00,75.0,73.0,29.63,SE,135,14.0,18.0,95,0.00,,,0.00,TxWx,2013-04-10 02:38:00,
2013-04-09 21:40:00,74.0,72.0,29.63,SSE,157,20.0,20.0,95,0.00,,,0.00,TxWx,2013-04-10 02:40:00,
2013-04-09 21:43:00,74.0,72.0,29.63,South,180,14.0,14.0,95,0.00,,,0.00,TxWx,2013-04-10 02:43:00,
2013-04-09 21:44:00,74.0,72.0,29.63,SE,135,16.0,16.0,95,0.00,,,0.00,TxWx,2013-04-10 02:44:00,
2013-04-09 21:47:00,74.0,72.0,29.63,SSW,202,21.0,24.0,95,0.00,,,0.00,TxWx,2013-04-10 02:47:00,
2013-04-09 21:49:00,74.0,72.0,29.63,South,180,8.0,8.0,95,0.00,,,0.00,TxWx,2013-04-10 02:49:00,
2013-04-09 21:50:00,74.0,72.0,29.63,SSE,157,21.0,21.0,95,0.00,,,0.00,TxWx,2013-04-10 02:50:00,
2013-04-09 21:53:00,74.0,72.0,29.63,SE,135,13.0,13.0,95,0.00,,,0.00,TxWx,2013-04-10 02:53:00,
2013-04-09 21:55:00,74.0,72.0,29.63,SW,225,10.0,10.0,95,0.00,,,0.00,TxWx,2013-04-10 02:55:00,
2013-04-09 21:56:00,74.0,72.0,29.63,South,180,8.0,8.0,95,0.00,,,0.00,TxWx,2013-04-10 02:56:00,
2013-04-09 21:59:00,74.0,72.0,29.63,SSE,157,18.0,18.0,95,0.00,,,0.00,TxWx,2013-04-10 02:59:00,
2013-04-09 22:00:00,74.0,72.0,29.63,SE,135,10.0,14.0,95,0.00,,,0.00,TxWx,2013-04-10 03:00:00,
2013-04-09 22:02:00,74.0,72.0,29.63,SSW,202,10.0,14.0,95,0.00,,,0.00,TxWx,2013-04-10 03:02:00,
2013-04-09 22:05:00,74.0,72.0,29.63,SSW,202,13.0,21.0,95,0.00,,,0.00,TxWx,2013-04-10 03:05:00,
2013-04-09 22:06:00,74.0,73.0,29.63,SSE,157,11.0,13.0,96,0.00,,,0.00,TxWx,2013-04-10 03:06:00,
2013-04-09 22:07:00,74.0,73.0,29.64,SSE,157,13.0,14.0,96,0.00,,,0.00,TxWx,2013-04-10 03:07:00,
2013-04-09 22:08:00,74.0,73.0,29.63,South,180,14.0,14.0,96,0.00,,,0.00,TxWx,2013-04-10 03:08:00,
2013-04-09 22:10:00,74.0,73.0,29.63,SSE,157,19.0,21.0,96,0.00,,,0.00,TxWx,2013-04-10 03:10:00,
2013-04-09 22:13:00,74.0,73.0,29.63,SSE,157,10.0,10.0,96,0.00,,,0.00,TxWx,2013-04-10 03:13:00,
2013-04-09 22:15:00,74.0,73.0,29.64,East,90,10.0,10.0,96,0.00,,,0.00,TxWx,2013-04-10 03:15:00,
2013-04-09 22:16:00,74.0,73.0,29.64,SSE,157,8.0,9.0,96,0.00,,,0.00,TxWx,2013-04-10 03:16:00,
2013-04-09 22:19:00,74.0,73.0,29.64,SSE,157,13.0,13.0,96,0.00,,,0.00,TxWx,2013-04-10 03:19:00,
2013-04-09 22:20:00,74.0,73.0,29.64,SSW,202,13.0,14.0,96,0.00,,,0.00,TxWx,2013-04-10 03:20:00,
2013-04-09 22:21:00,74.0,73.0,29.64,SE,135,13.0,13.0,96,0.00,,,0.00,TxWx,2013-04-10 03:21:00,
2013-04-09 22:24:00,74.0,73.0,29.64,SSE,157,16.0,16.0,96,0.00,,,0.00,TxWx,2013-04-10 03:24:00,
2013-04-09 22:26:00,74.0,73.0,29.64,SSW,202,14.0,18.0,96,0.00,,,0.00,TxWx,2013-04-10 03:26:00,
2013-04-09 22:28:00,74.0,73.0,29.65,SSE,157,16.0,18.0,96,0.00,,,0.00,TxWx,2013-04-10 03:28:00,
2013-04-09 22:31:00,74.0,73.0,29.65,SE,135,10.0,16.0,96,0.00,,,0.00,TxWx,2013-04-10 03:31:00,
2013-04-09 22:32:00,74.0,73.0,29.65,SSE,157,12.0,12.0,96,0.00,,,0.00,TxWx,2013-04-10 03:32:00,
2013-04-09 22:33:00,74.0,73.0,29.65,SSE,157,14.0,17.0,96,0.00,,,0.00,TxWx,2013-04-10 03:33:00,
2013-04-09 22:35:00,74.0,73.0,29.65,ESE,112,15.0,18.0,96,0.00,,,0.00,TxWx,2013-04-10 03:35:00,
2013-04-09 22:36:00,74.0,73.0,29.65,SSW,202,12.0,12.0,96,0.00,,,0.00,TxWx,2013-04-10 03:36:00,
2013-04-09 22:38:00,74.0,73.0,29.65,SSE,157,8.0,8.0,96,0.00,,,0.00,TxWx,2013-04-10 03:38:00,
2013-04-09 22:41:00,74.0,73.0,29.65,SSW,202,11.0,14.0,96,0.00,,,0.00,TxWx,2013-04-10 03:41:00,
2013-04-09 22:42:00,74.0,72.0,29.65,SSW,202,17.0,19.0,95,0.00,,,0.00,TxWx,2013-04-10 03:42:00,
2013-04-09 22:44:00,74.0,72.0,29.65,SE,135,13.0,13.0,95,0.00,,,0.00,TxWx,2013-04-10 03:44:00,
2013-04-09 22:46:00,74.0,72.0,29.66,South,180,21.0,21.0,95,0.00,,,0.00,TxWx,2013-04-10 03:46:00,
2013-04-09 22:48:00,74.0,72.0,29.66,SSE,157,9.0,9.0,95,0.00,,,0.00,TxWx,2013-04-10 03:48:00,
2013-04-09 22:50:00,74.0,72.0,29.66,South,180,21.0,21.0,95,0.00,,,0.00,TxWx,2013-04-10 03:50:00,
2013-04-09 22:53:00,74.0,72.0,29.65,SSE,157,14.0,14.0,95,0.00,,,0.00,TxWx,2013-04-10 03:53:00,
2013-04-09 22:54:00,74.0,72.0,29.65,SE,135,7.0,8.0,95,0.00,,,0.00,TxWx,2013-04-10 03:54:00,
2013-04-09 22:56:00,74.0,72.0,29.65,SE,135,18.0,18.0,95,0.00,,,0.00,TxWx,2013-04-10 03:56:00,
2013-04-09 22:58:00,74.0,72.0,29.66,SSE,157,13.0,13.0,95,0.00,,,0.00,TxWx,2013-04-10 03:58:00,
2013-04-09 23:00:00,74.0,72.0,29.66,SSE,157,11.0,12.0,95,0.00,,,0.00,TxWx,2013-04-10 04:00:00,
2013-04-09 23:02:00,74.0,72.0,29.66,South,180,5.0,5.0,95,0.00,,,0.00,TxWx,2013-04-10 04:02:00,
2013-04-09 23:03:00,74.0,72.0,29.66,SE,135,13.0,14.0,95,0.00,,,0.00,TxWx,2013-04-10 04:03:00,
2013-04-09 23:05:00,74.0,72.0,29.66,SE,135,13.0,13.0,95,0.00,,,0.00,TxWx,2013-04-10 04:05:00,
2013-04-09 23:08:00,74.0,72.0,29.66,SSE,157,19.0,19.0,95,0.00,,,0.00,TxWx,2013-04-10 04:08:00,
2013-04-09 23:09:00,74.0,72.0,29.66,SSE,157,12.0,12.0,95,0.00,,,0.00,TxWx,2013-04-10 04:09:00,
2013-04-09 23:10:00,74.0,72.0,29.66,SSE,157,10.0,13.0,95,0.00,,,0.00,TxWx,2013-04-10 04:10:00,
2013-04-09 23:12:00,74.0,72.0,29.66,SE,135,13.0,13.0,95,0.00,,,0.00,TxWx,2013-04-10 04:12:00,
2013-04-09 23:13:00,74.0,72.0,29.66,SE,135,14.0,15.0,95,0.00,,,0.00,TxWx,2013-04-10 04:13:00,
2013-04-09 23:15:00,74.0,72.0,29.66,South,180,10.0,11.0,95,0.00,,,0.00,TxWx,2013-04-10 04:15:00,
2013-04-09 23:16:00,74.0,72.0,29.66,SE,135,14.0,18.0,95,0.00,,,0.00,TxWx,2013-04-10 04:16:00,
2013-04-09 23:18:00,74.0,72.0,29.66,SSE,157,12.0,12.0,95,0.00,,,0.00,TxWx,2013-04-10 04:18:00,
2013-04-09 23:19:00,74.0,72.0,29.66,SSE,157,10.0,10.0,95,0.00,,,0.00,TxWx,2013-04-10 04:19:00,
2013-04-09 23:21:00,74.0,72.0,29.65,SSE,157,14.0,14.0,95,0.00,,,0.00,TxWx,2013-04-10 04:21:00,
2013-04-09 23:24:00,74.0,72.0,29.66,SE,135,13.0,18.0,95,0.00,,,0.00,TxWx,2013-04-10 04:24:00,
2013-04-09 23:26:00,74.0,72.0,29.66,SSE,157,15.0,15.0,95,0.00,,,0.00,TxWx,2013-04-10 04:26:00,
2013-04-09 23:29:00,74.0,72.0,29.66,SE,135,10.0,10.0,95,0.00,,,0.00,TxWx,2013-04-10 04:29:00,
2013-04-09 23:31:00,74.0,72.0,29.66,SSE,157,13.0,14.0,95,0.00,,,0.00,TxWx,2013-04-10 04:31:00,
2013-04-09 23:33:00,74.0,72.0,29.66,SSE,157,13.0,14.0,95,0.00,,,0.00,TxWx,2013-04-10 04:33:00,
2013-04-09 23:34:00,74.0,72.0,29.65,SSE,157,9.0,9.0,95,0.00,,,0.00,TxWx,2013-04-10 04:34:00,
2013-04-09 23:37:00,74.0,73.0,29.66,South,180,16.0,16.0,96,0.00,,,0.00,TxWx,2013-04-10 04:37:00,
2013-04-09 23:38:00,74.0,73.0,29.65,South,180,20.0,20.0,96,0.00,,,0.00,TxWx,2013-04-10 04:38:00,
2013-04-09 23:41:00,74.0,73.0,29.66,SE,135,11.0,14.0,96,0.00,,,0.00,TxWx,2013-04-10 04:41:00,
2013-04-09 23:42:00,74.0,73.0,29.66,SSE,157,13.0,13.0,96,0.00,,,0.00,TxWx,2013-04-10 04:42:00,
2013-04-09 23:44:00,74.0,73.0,29.65,SE,135,13.0,15.0,96,0.00,,,0.00,TxWx,2013-04-10 04:44:00,
2013-04-09 23:46:00,74.0,73.0,29.66,South,180,9.0,11.0,96,0.00,,,0.00,TxWx,2013-04-10 04:46:00,
2013-04-09 23:47:00,74.0,73.0,29.66,South,180,13.0,14.0,96,0.00,,,0.00,TxWx,2013-04-10 04:47:00,
2013-04-09 23:49:00,74.0,73.0,29.66,SSW,202,16.0,18.0,96,0.00,,,0.00,TxWx,2013-04-10 04:49:00,
2013-04-09 23:50:00,74.0,73.0,29.66,South,180,15.0,15.0,96,0.00,,,0.00,TxWx,2013-04-10 04:50:00,
2013-04-09 23:52:00,74.0,73.0,29.66,SSE,157,12.0,15.0,96,0.00,,,0.00,TxWx,2013-04-10 04:52:00,
2013-04-09 23:53:00,74.0,73.0,29.66,SE,135,18.0,19.0,96,0.00,,,0.00,TxWx,2013-04-10 04:53:00,
2013-04-09 23:55:00,74.0,73.0,29.66,SSE,157,11.0,13.0,96,0.00,,,0.00,TxWx,2013-04-10 04:55:00,
2013-04-09 23:58:00,74.0,73.0,29.66,SE,135,13.0,14.0,96,0.00,,,0.00,TxWx,2013-04-10 04:58:00,